KAY350 EGCC-OMDB
Flight info
| Callsign | KAY350 |
|---|---|
| Flight time | 6h 56m |
| Altitude | 41000 |
| Route | LISTO P18 TELBA L151 MID UL612 VEULE DCT KOTAP UM728 KETEX DCT KOTIS DCT KUKOR DCT UTUVA DCT TITVA DCT NOQAS DCT OTROT DCT RETNO DCT KOLON DCT RAPUR DCT RATAP DCT BTA DCT DOKAR DCT SUNEV DCT TAGEL DCT MASOT DCT BELIX DCT SALUN N705 MMA P751 DASUM Y234 FYM M872 BDB Y214 RAPMA DCT KUVSO DCT KATIT DCT PEKEM M628 RIGIL G783 ELUDA/N0502F350 G783 ASPED Q308 KIPOK Q568 IMPED |
| Aircraft | A359/H-SDE2E3GHIJ3J4J5LM1ORWXY/LB1D1 |
Departure
| Time | 2026-04-20 05:17 |
|---|---|
| Airport | Manchester Airport (EGCC) |
Arrival
| Time | 2026-04-20 12:13 |
|---|---|
| Airport | Dubai International Airport (OMDB) |
| Time | Latitude | Longitude | Altitude | Speed | Heading |
|---|---|---|---|---|---|
| 2026-04-20 05:08 | 53.35902 | -2.28001 | 261 ft | 0 kts | 290° |
| 2026-04-20 05:12 | 53.35900 | -2.27995 | 261 ft | 4 kts | 290° |
| 2026-04-20 05:12 | 53.35893 | -2.27954 | 263 ft | 4 kts | 276° |
| 2026-04-20 05:12 | 53.35894 | -2.27913 | 265 ft | 4 kts | 252° |
| 2026-04-20 05:12 | 53.35906 | -2.27875 | 267 ft | 4 kts | 228° |
| 2026-04-20 05:13 | 53.35925 | -2.27849 | 265 ft | 4 kts | 204° |
| 2026-04-20 05:13 | 53.35944 | -2.27840 | 263 ft | 0 kts | 187° |
| 2026-04-20 05:14 | 53.35918 | -2.27843 | 265 ft | 12 kts | 181° |
| 2026-04-20 05:14 | 53.35811 | -2.27729 | 258 ft | 23 kts | 134° |
| 2026-04-20 05:14 | 53.35668 | -2.27594 | 252 ft | 25 kts | 144° |
| 2026-04-20 05:14 | 53.35654 | -2.27393 | 256 ft | 22 kts | 56° |
| 2026-04-20 05:15 | 53.35753 | -2.27181 | 261 ft | 24 kts | 53° |
| 2026-04-20 05:15 | 53.35856 | -2.26935 | 262 ft | 31 kts | 55° |
| 2026-04-20 05:15 | 53.35989 | -2.26636 | 262 ft | 32 kts | 52° |
| 2026-04-20 05:15 | 53.36127 | -2.26345 | 262 ft | 32 kts | 50° |
| 2026-04-20 05:16 | 53.36266 | -2.26089 | 262 ft | 26 kts | 71° |
| 2026-04-20 05:16 | 53.36283 | -2.25833 | 263 ft | 20 kts | 104° |
| 2026-04-20 05:16 | 53.36200 | -2.25794 | 265 ft | 14 kts | 221° |
| 2026-04-20 05:16 | 53.36111 | -2.25967 | 264 ft | 42 kts | 231° |
| 2026-04-20 05:17 | 53.35720 | -2.26777 | 275 ft | 135 kts | 231° |
| 2026-04-20 05:17 | 53.35007 | -2.28257 | 724 ft | 178 kts | 230° |
| 2026-04-20 05:17 | 53.34168 | -2.29959 | 1678 ft | 203 kts | 230° |
| 2026-04-20 05:17 | 53.33220 | -2.31917 | 2664 ft | 229 kts | 233° |
| 2026-04-20 05:18 | 53.32636 | -2.34500 | 3717 ft | 252 kts | 264° |
| 2026-04-20 05:18 | 53.32431 | -2.37525 | 4788 ft | 272 kts | 257° |
| 2026-04-20 05:18 | 53.31533 | -2.40371 | 5872 ft | 287 kts | 226° |
| 2026-04-20 05:18 | 53.29932 | -2.42398 | 6957 ft | 299 kts | 211° |
| 2026-04-20 05:19 | 53.28000 | -2.43839 | 8015 ft | 310 kts | 193° |
| 2026-04-20 05:19 | 53.25838 | -2.43785 | 9117 ft | 316 kts | 164° |
| 2026-04-20 05:19 | 53.23808 | -2.42306 | 10263 ft | 321 kts | 151° |
| 2026-04-20 05:19 | 53.21842 | -2.40510 | 11306 ft | 324 kts | 151° |
| 2026-04-20 05:20 | 53.19865 | -2.38703 | 12388 ft | 325 kts | 151° |
| 2026-04-20 05:20 | 53.17872 | -2.36915 | 13514 ft | 323 kts | 152° |
| 2026-04-20 05:20 | 53.15897 | -2.35165 | 14607 ft | 320 kts | 152° |
| 2026-04-20 05:20 | 53.13960 | -2.33454 | 15580 ft | 320 kts | 152° |
| 2026-04-20 05:21 | 53.11967 | -2.31702 | 16239 ft | 330 kts | 153° |
| 2026-04-20 05:21 | 53.09895 | -2.29894 | 16764 ft | 343 kts | 153° |
| 2026-04-20 05:21 | 53.07928 | -2.28182 | 17243 ft | 355 kts | 153° |
| 2026-04-20 05:21 | 53.06103 | -2.26596 | 17689 ft | 366 kts | 153° |
| 2026-04-20 05:22 | 53.03787 | -2.24603 | 18228 ft | 379 kts | 155° |
| 2026-04-20 05:22 | 53.01284 | -2.23063 | 18758 ft | 389 kts | 168° |
| 2026-04-20 05:22 | 52.98569 | -2.22514 | 19232 ft | 398 kts | 181° |
| 2026-04-20 05:22 | 52.95770 | -2.22571 | 19712 ft | 407 kts | 186° |
| 2026-04-20 05:23 | 52.92908 | -2.22932 | 20216 ft | 417 kts | 189° |
| 2026-04-20 05:23 | 52.89987 | -2.23443 | 20720 ft | 427 kts | 190° |
| 2026-04-20 05:23 | 52.87011 | -2.24072 | 21228 ft | 434 kts | 194° |
| 2026-04-20 05:23 | 52.84019 | -2.25081 | 21761 ft | 441 kts | 196° |
| 2026-04-20 05:24 | 52.81003 | -2.26204 | 22287 ft | 449 kts | 197° |
| 2026-04-20 05:24 | 52.77979 | -2.27375 | 22834 ft | 455 kts | 198° |
| 2026-04-20 05:24 | 52.74873 | -2.28593 | 23392 ft | 461 kts | 198° |
| 2026-04-20 05:24 | 52.71709 | -2.29694 | 23926 ft | 470 kts | 193° |
| 2026-04-20 05:25 | 52.68399 | -2.29989 | 24394 ft | 483 kts | 181° |
| 2026-04-20 05:25 | 52.65044 | -2.29091 | 24872 ft | 496 kts | 167° |
| 2026-04-20 05:25 | 52.61836 | -2.26857 | 25365 ft | 506 kts | 154° |
| 2026-04-20 05:25 | 52.58784 | -2.23902 | 25858 ft | 512 kts | 150° |
| 2026-04-20 05:26 | 52.55802 | -2.20676 | 26367 ft | 516 kts | 148° |
| 2026-04-20 05:26 | 52.52829 | -2.17320 | 26879 ft | 520 kts | 148° |
| 2026-04-20 05:26 | 52.49849 | -2.13933 | 27334 ft | 523 kts | 149° |
| 2026-04-20 05:26 | 52.46840 | -2.10549 | 27884 ft | 525 kts | 149° |
| 2026-04-20 05:27 | 52.43808 | -2.07187 | 28426 ft | 527 kts | 150° |
| 2026-04-20 05:27 | 52.40753 | -2.03841 | 28993 ft | 529 kts | 150° |
| 2026-04-20 05:27 | 52.37719 | -2.00544 | 29548 ft | 530 kts | 151° |
| 2026-04-20 05:27 | 52.34648 | -1.97211 | 30147 ft | 531 kts | 152° |
| 2026-04-20 05:28 | 52.31562 | -1.93882 | 30678 ft | 530 kts | 152° |
| 2026-04-20 05:28 | 52.28468 | -1.90562 | 31011 ft | 534 kts | 151° |
| 2026-04-20 05:28 | 52.25346 | -1.87221 | 31215 ft | 539 kts | 151° |
| 2026-04-20 05:28 | 52.22190 | -1.83845 | 31452 ft | 544 kts | 151° |
| 2026-04-20 05:29 | 52.19010 | -1.80446 | 31692 ft | 549 kts | 151° |
| 2026-04-20 05:29 | 52.15809 | -1.77026 | 31947 ft | 552 kts | 150° |
| 2026-04-20 05:29 | 52.12578 | -1.73578 | 32196 ft | 556 kts | 150° |
| 2026-04-20 05:29 | 52.09332 | -1.70116 | 32450 ft | 559 kts | 150° |
| 2026-04-20 05:30 | 52.06080 | -1.66647 | 32704 ft | 561 kts | 150° |
| 2026-04-20 05:30 | 52.02803 | -1.63150 | 32938 ft | 563 kts | 150° |
| 2026-04-20 05:30 | 51.99520 | -1.59656 | 33199 ft | 563 kts | 150° |
| 2026-04-20 05:30 | 51.96244 | -1.56192 | 33458 ft | 563 kts | 150° |
| 2026-04-20 05:31 | 51.92959 | -1.52731 | 33730 ft | 563 kts | 150° |
| 2026-04-20 05:31 | 51.89675 | -1.49281 | 34002 ft | 562 kts | 150° |
| 2026-04-20 05:31 | 51.86394 | -1.45837 | 34304 ft | 561 kts | 150° |
| 2026-04-20 05:31 | 51.83124 | -1.42404 | 34529 ft | 560 kts | 150° |
| 2026-04-20 05:32 | 51.79859 | -1.38982 | 34727 ft | 559 kts | 150° |
| 2026-04-20 05:32 | 51.76600 | -1.35571 | 34956 ft | 557 kts | 150° |
| 2026-04-20 05:32 | 51.73351 | -1.32176 | 35200 ft | 555 kts | 150° |
| 2026-04-20 05:32 | 51.70156 | -1.28843 | 35441 ft | 553 kts | 150° |
| 2026-04-20 05:33 | 51.66930 | -1.25484 | 35682 ft | 551 kts | 150° |
| 2026-04-20 05:33 | 51.63716 | -1.22144 | 35934 ft | 549 kts | 150° |
| 2026-04-20 05:33 | 51.60513 | -1.18821 | 36185 ft | 547 kts | 150° |
| 2026-04-20 05:33 | 51.57318 | -1.15511 | 36425 ft | 545 kts | 150° |
| 2026-04-20 05:34 | 51.54136 | -1.12221 | 36643 ft | 543 kts | 150° |
| 2026-04-20 05:34 | 51.50964 | -1.08946 | 36910 ft | 541 kts | 150° |
| 2026-04-20 05:34 | 51.44647 | -1.02440 | 37426 ft | 537 kts | 150° |
| 2026-04-20 05:35 | 51.41509 | -0.99216 | 37692 ft | 535 kts | 150° |
| 2026-04-20 05:35 | 51.38385 | -0.96012 | 37960 ft | 533 kts | 149° |
| 2026-04-20 05:35 | 51.35268 | -0.92821 | 38256 ft | 531 kts | 150° |
| 2026-04-20 05:35 | 51.32153 | -0.89638 | 38504 ft | 529 kts | 150° |
| 2026-04-20 05:36 | 51.29093 | -0.86516 | 38787 ft | 527 kts | 150° |
| 2026-04-20 05:36 | 51.25970 | -0.83335 | 39056 ft | 524 kts | 149° |
| 2026-04-20 05:36 | 51.22901 | -0.80212 | 39267 ft | 522 kts | 149° |
| 2026-04-20 05:36 | 51.19883 | -0.77148 | 39479 ft | 520 kts | 149° |
| 2026-04-20 05:37 | 51.16837 | -0.74059 | 39711 ft | 518 kts | 149° |
| 2026-04-20 05:37 | 51.13799 | -0.70983 | 39944 ft | 516 kts | 149° |
| 2026-04-20 05:37 | 51.10772 | -0.67924 | 40169 ft | 513 kts | 149° |
| 2026-04-20 05:37 | 51.07766 | -0.64890 | 40409 ft | 511 kts | 149° |
| 2026-04-20 05:38 | 51.04770 | -0.61871 | 40650 ft | 508 kts | 149° |
| 2026-04-20 05:38 | 51.01815 | -0.58814 | 40879 ft | 506 kts | 148° |
| 2026-04-20 05:38 | 50.98898 | -0.55701 | 41128 ft | 503 kts | 147° |
| 2026-04-20 05:38 | 50.96007 | -0.52579 | 41266 ft | 502 kts | 147° |
| 2026-04-20 05:39 | 50.91183 | -0.47380 | 41279 ft | 506 kts | 147° |
| 2026-04-20 05:39 | 50.85312 | -0.41115 | 41270 ft | 511 kts | 148° |
| 2026-04-20 05:40 | 50.79373 | -0.34826 | 41281 ft | 516 kts | 148° |
| 2026-04-20 05:40 | 50.73387 | -0.28517 | 41275 ft | 519 kts | 148° |
| 2026-04-20 05:41 | 50.67342 | -0.22163 | 41273 ft | 522 kts | 148° |
| 2026-04-20 05:41 | 50.61284 | -0.15814 | 41271 ft | 523 kts | 148° |
| 2026-04-20 05:42 | 50.55212 | -0.09471 | 41273 ft | 524 kts | 148° |
| 2026-04-20 05:42 | 50.49169 | -0.03178 | 41268 ft | 525 kts | 148° |
| 2026-04-20 05:43 | 50.43074 | 0.03155 | 41269 ft | 525 kts | 148° |
| 2026-04-20 05:43 | 50.36976 | 0.09469 | 41268 ft | 525 kts | 148° |
| 2026-04-20 05:44 | 50.30887 | 0.15754 | 41265 ft | 524 kts | 148° |
| 2026-04-20 05:44 | 50.24784 | 0.22023 | 41268 ft | 525 kts | 148° |
| 2026-04-20 05:45 | 50.18679 | 0.28283 | 41251 ft | 525 kts | 148° |
| 2026-04-20 05:45 | 50.12581 | 0.34548 | 41261 ft | 524 kts | 148° |
| 2026-04-20 05:46 | 50.06530 | 0.40755 | 41264 ft | 524 kts | 148° |
| 2026-04-20 05:46 | 50.00426 | 0.46996 | 41266 ft | 524 kts | 148° |
| 2026-04-20 05:47 | 49.94324 | 0.53211 | 41258 ft | 524 kts | 148° |
| 2026-04-20 05:47 | 49.88215 | 0.59414 | 41258 ft | 524 kts | 148° |
| 2026-04-20 05:48 | 49.82141 | 0.65682 | 41253 ft | 525 kts | 146° |
| 2026-04-20 05:48 | 49.76216 | 0.72293 | 41245 ft | 525 kts | 145° |
| 2026-04-20 05:49 | 49.70305 | 0.78944 | 41244 ft | 525 kts | 145° |
| 2026-04-20 05:49 | 49.64400 | 0.85495 | 41243 ft | 525 kts | 146° |
| 2026-04-20 05:50 | 49.58447 | 0.92034 | 41237 ft | 525 kts | 146° |
| 2026-04-20 05:50 | 49.52489 | 0.98546 | 41220 ft | 525 kts | 146° |
| 2026-04-20 05:51 | 49.46529 | 1.05040 | 41214 ft | 525 kts | 146° |
| 2026-04-20 05:51 | 49.40568 | 1.11520 | 41210 ft | 525 kts | 146° |
| 2026-04-20 05:52 | 49.34596 | 1.17993 | 41212 ft | 525 kts | 146° |
| 2026-04-20 05:52 | 49.28621 | 1.24449 | 41197 ft | 525 kts | 146° |
| 2026-04-20 05:53 | 49.22647 | 1.30886 | 41212 ft | 525 kts | 146° |
| 2026-04-20 05:53 | 49.16658 | 1.37319 | 41214 ft | 525 kts | 146° |
| 2026-04-20 05:54 | 49.10672 | 1.43729 | 41210 ft | 525 kts | 146° |
| 2026-04-20 05:54 | 49.04724 | 1.50079 | 41203 ft | 525 kts | 146° |
| 2026-04-20 05:55 | 48.98730 | 1.56459 | 41207 ft | 525 kts | 146° |
| 2026-04-20 05:55 | 48.92727 | 1.62829 | 41205 ft | 526 kts | 146° |
| 2026-04-20 05:56 | 48.86724 | 1.69182 | 41196 ft | 526 kts | 147° |
| 2026-04-20 05:56 | 48.80749 | 1.75485 | 41198 ft | 526 kts | 147° |
| 2026-04-20 05:57 | 48.74739 | 1.81806 | 41189 ft | 526 kts | 147° |
| 2026-04-20 05:57 | 48.68728 | 1.88111 | 41184 ft | 525 kts | 147° |
| 2026-04-20 05:58 | 48.62705 | 1.94408 | 41171 ft | 525 kts | 147° |
| 2026-04-20 05:58 | 48.56680 | 2.00689 | 41178 ft | 526 kts | 147° |
| 2026-04-20 05:59 | 48.50653 | 2.06954 | 41168 ft | 526 kts | 147° |
| 2026-04-20 05:59 | 48.44657 | 2.13169 | 41179 ft | 526 kts | 147° |
| 2026-04-20 06:00 | 48.38627 | 2.19401 | 41174 ft | 526 kts | 147° |
| 2026-04-20 06:00 | 48.32585 | 2.25627 | 41165 ft | 526 kts | 147° |
| 2026-04-20 06:01 | 48.26139 | 2.30678 | 41165 ft | 520 kts | 164° |
| 2026-04-20 06:01 | 48.19262 | 2.33752 | 41140 ft | 519 kts | 168° |
| 2026-04-20 06:02 | 48.12276 | 2.36488 | 41158 ft | 519 kts | 168° |
| 2026-04-20 06:02 | 48.05354 | 2.39691 | 41156 ft | 521 kts | 164° |
| 2026-04-20 06:03 | 47.98497 | 2.43233 | 41143 ft | 522 kts | 163° |
| 2026-04-20 06:03 | 47.91623 | 2.46741 | 41150 ft | 522 kts | 164° |
| 2026-04-20 06:04 | 47.84738 | 2.50171 | 41150 ft | 522 kts | 164° |
| 2026-04-20 06:04 | 47.77835 | 2.53570 | 41137 ft | 522 kts | 164° |
| 2026-04-20 06:05 | 47.70980 | 2.56933 | 41131 ft | 522 kts | 165° |
| 2026-04-20 06:05 | 47.64075 | 2.60314 | 41126 ft | 523 kts | 165° |
| 2026-04-20 06:06 | 47.57166 | 2.63690 | 41124 ft | 523 kts | 165° |
| 2026-04-20 06:06 | 47.50242 | 2.67064 | 41119 ft | 523 kts | 165° |
| 2026-04-20 06:07 | 47.43335 | 2.70420 | 41113 ft | 523 kts | 165° |
| 2026-04-20 06:07 | 47.36414 | 2.73774 | 41112 ft | 523 kts | 165° |
| 2026-04-20 06:08 | 47.29546 | 2.77094 | 41113 ft | 522 kts | 165° |
| 2026-04-20 06:08 | 47.22592 | 2.80444 | 41104 ft | 522 kts | 165° |
| 2026-04-20 06:09 | 47.15735 | 2.83740 | 41098 ft | 522 kts | 165° |
| 2026-04-20 06:09 | 47.08826 | 2.87050 | 41115 ft | 522 kts | 165° |
| 2026-04-20 06:10 | 47.01918 | 2.90349 | 41124 ft | 522 kts | 165° |
| 2026-04-20 06:10 | 46.94995 | 2.93648 | 41122 ft | 523 kts | 165° |
| 2026-04-20 06:11 | 46.88067 | 2.96941 | 41125 ft | 523 kts | 165° |
| 2026-04-20 06:11 | 46.81155 | 3.00217 | 41118 ft | 522 kts | 165° |
| 2026-04-20 06:12 | 46.74232 | 3.03488 | 41112 ft | 522 kts | 166° |
| 2026-04-20 06:12 | 46.67362 | 3.06727 | 41087 ft | 522 kts | 166° |
| 2026-04-20 06:13 | 46.60449 | 3.09976 | 41101 ft | 522 kts | 166° |
| 2026-04-20 06:13 | 46.53532 | 3.13219 | 41093 ft | 522 kts | 166° |
| 2026-04-20 06:14 | 46.46675 | 3.16765 | 41094 ft | 523 kts | 162° |
| 2026-04-20 06:14 | 46.39871 | 3.20538 | 41095 ft | 523 kts | 162° |
| 2026-04-20 06:15 | 46.33059 | 3.24271 | 41100 ft | 524 kts | 163° |
| 2026-04-20 06:15 | 46.26231 | 3.27946 | 41098 ft | 523 kts | 163° |
| 2026-04-20 06:16 | 46.19388 | 3.31596 | 41104 ft | 523 kts | 163° |
| 2026-04-20 06:16 | 46.12554 | 3.35231 | 41103 ft | 523 kts | 163° |
| 2026-04-20 06:17 | 46.05728 | 3.38855 | 41099 ft | 523 kts | 163° |
| 2026-04-20 06:17 | 45.98950 | 3.42444 | 41097 ft | 522 kts | 163° |
| 2026-04-20 06:18 | 45.92123 | 3.46050 | 41093 ft | 522 kts | 163° |
| 2026-04-20 06:18 | 45.85432 | 3.50169 | 41093 ft | 527 kts | 152° |
| 2026-04-20 06:19 | 45.79184 | 3.55727 | 41087 ft | 529 kts | 150° |
| 2026-04-20 06:19 | 45.73064 | 3.61516 | 41086 ft | 529 kts | 149° |
| 2026-04-20 06:20 | 45.66929 | 3.67342 | 41083 ft | 529 kts | 149° |
| 2026-04-20 06:20 | 45.60780 | 3.73126 | 41082 ft | 529 kts | 149° |
| 2026-04-20 06:21 | 45.54620 | 3.78880 | 41081 ft | 529 kts | 150° |
| 2026-04-20 06:21 | 45.48462 | 3.84613 | 41081 ft | 529 kts | 150° |
| 2026-04-20 06:22 | 45.42300 | 3.90336 | 41089 ft | 529 kts | 150° |
| 2026-04-20 06:22 | 45.36414 | 3.96652 | 41090 ft | 533 kts | 137° |
| 2026-04-20 06:23 | 45.31675 | 4.04795 | 41089 ft | 536 kts | 128° |
| 2026-04-20 06:23 | 45.27321 | 4.13309 | 41088 ft | 536 kts | 127° |
| 2026-04-20 06:24 | 45.22978 | 4.21930 | 41089 ft | 537 kts | 127° |
| 2026-04-20 06:24 | 45.18609 | 4.30512 | 41084 ft | 537 kts | 127° |
| 2026-04-20 06:25 | 45.14206 | 4.39064 | 41078 ft | 537 kts | 127° |
| 2026-04-20 06:25 | 45.09768 | 4.47561 | 41061 ft | 536 kts | 130° |
| 2026-04-20 06:26 | 45.04958 | 4.55507 | 41068 ft | 534 kts | 134° |
| 2026-04-20 06:26 | 44.99981 | 4.63318 | 41065 ft | 535 kts | 134° |
| 2026-04-20 06:27 | 44.95039 | 4.71196 | 41070 ft | 536 kts | 133° |
| 2026-04-20 06:27 | 44.90132 | 4.79125 | 41070 ft | 536 kts | 133° |
| 2026-04-20 06:28 | 44.85240 | 4.87048 | 41076 ft | 535 kts | 133° |
| 2026-04-20 06:28 | 44.80344 | 4.94955 | 41073 ft | 535 kts | 133° |
| 2026-04-20 06:29 | 44.75440 | 5.02846 | 41070 ft | 536 kts | 133° |
| 2026-04-20 06:29 | 44.70560 | 5.10673 | 41054 ft | 536 kts | 133° |
| 2026-04-20 06:30 | 44.65637 | 5.18546 | 41041 ft | 536 kts | 133° |
| 2026-04-20 06:30 | 44.60706 | 5.26411 | 41028 ft | 536 kts | 133° |
| 2026-04-20 06:31 | 44.55771 | 5.34259 | 41022 ft | 536 kts | 133° |
| 2026-04-20 06:31 | 44.50830 | 5.42096 | 41022 ft | 536 kts | 133° |
| 2026-04-20 06:32 | 44.45917 | 5.49866 | 41013 ft | 536 kts | 133° |
| 2026-04-20 06:32 | 44.40968 | 5.57674 | 41013 ft | 536 kts | 133° |
| 2026-04-20 06:33 | 44.37069 | 5.64409 | 41014 ft | 537 kts | 127° |
| 2026-04-20 06:33 | 44.32801 | 5.72984 | 41013 ft | 537 kts | 125° |
| 2026-04-20 06:34 | 44.28613 | 5.81625 | 41008 ft | 537 kts | 125° |
| 2026-04-20 06:35 | 44.22325 | 5.94575 | 41004 ft | 537 kts | 125° |
| 2026-04-20 06:35 | 44.18115 | 6.03180 | 41005 ft | 537 kts | 125° |
| 2026-04-20 06:36 | 44.13887 | 6.11787 | 41007 ft | 537 kts | 125° |
| 2026-04-20 06:36 | 44.09656 | 6.20373 | 41001 ft | 538 kts | 125° |
| 2026-04-20 06:37 | 44.05441 | 6.28902 | 40995 ft | 538 kts | 126° |
| 2026-04-20 06:37 | 44.01193 | 6.37476 | 40993 ft | 538 kts | 126° |
| 2026-04-20 06:38 | 43.96940 | 6.46033 | 40989 ft | 538 kts | 126° |
| 2026-04-20 06:38 | 43.92674 | 6.54590 | 40985 ft | 539 kts | 126° |
| 2026-04-20 06:39 | 43.88389 | 6.63161 | 40981 ft | 540 kts | 126° |
| 2026-04-20 06:39 | 43.84124 | 6.71668 | 40981 ft | 540 kts | 126° |
| 2026-04-20 06:40 | 43.79840 | 6.80188 | 40986 ft | 539 kts | 126° |
| 2026-04-20 06:40 | 43.75549 | 6.88696 | 40986 ft | 539 kts | 126° |
| 2026-04-20 06:41 | 43.71247 | 6.97214 | 40990 ft | 539 kts | 125° |
| 2026-04-20 06:41 | 43.67161 | 7.05827 | 40993 ft | 539 kts | 123° |
| 2026-04-20 06:42 | 43.63133 | 7.14572 | 40993 ft | 539 kts | 123° |
| 2026-04-20 06:42 | 43.59077 | 7.23289 | 40985 ft | 539 kts | 124° |
| 2026-04-20 06:43 | 43.54992 | 7.31965 | 40987 ft | 539 kts | 124° |
| 2026-04-20 06:43 | 43.50894 | 7.40616 | 40986 ft | 539 kts | 124° |
| 2026-04-20 06:44 | 43.46790 | 7.49256 | 40987 ft | 539 kts | 124° |
| 2026-04-20 06:44 | 43.42681 | 7.57883 | 40984 ft | 539 kts | 124° |
| 2026-04-20 06:45 | 43.38590 | 7.66450 | 40986 ft | 539 kts | 124° |
| 2026-04-20 06:45 | 43.34468 | 7.75057 | 40983 ft | 539 kts | 124° |
| 2026-04-20 06:46 | 43.30342 | 7.83646 | 40985 ft | 539 kts | 124° |
| 2026-04-20 06:46 | 43.26207 | 7.92229 | 40995 ft | 539 kts | 124° |
| 2026-04-20 06:47 | 43.22066 | 8.00801 | 40988 ft | 539 kts | 124° |
| 2026-04-20 06:47 | 43.17913 | 8.09370 | 40990 ft | 539 kts | 124° |
| 2026-04-20 06:48 | 43.13756 | 8.17925 | 40964 ft | 539 kts | 124° |
| 2026-04-20 06:48 | 43.09595 | 8.26462 | 40993 ft | 540 kts | 125° |
| 2026-04-20 06:49 | 43.05422 | 8.35001 | 40994 ft | 540 kts | 125° |
| 2026-04-20 06:49 | 43.01267 | 8.43478 | 41001 ft | 540 kts | 125° |
| 2026-04-20 06:50 | 42.97078 | 8.51999 | 40997 ft | 540 kts | 125° |
| 2026-04-20 06:50 | 42.92885 | 8.60505 | 41000 ft | 540 kts | 125° |
| 2026-04-20 06:51 | 42.88826 | 8.69124 | 40996 ft | 540 kts | 120° |
| 2026-04-20 06:51 | 42.85178 | 8.78105 | 40994 ft | 542 kts | 119° |
| 2026-04-20 06:52 | 42.81585 | 8.87162 | 40984 ft | 543 kts | 119° |
| 2026-04-20 06:52 | 42.77996 | 8.96209 | 40988 ft | 543 kts | 119° |
| 2026-04-20 06:53 | 42.74418 | 9.05174 | 40998 ft | 543 kts | 119° |
| 2026-04-20 06:53 | 42.70809 | 9.14182 | 40999 ft | 543 kts | 119° |
| 2026-04-20 06:54 | 42.67180 | 9.23207 | 40999 ft | 543 kts | 119° |
| 2026-04-20 06:54 | 42.63544 | 9.32213 | 41003 ft | 543 kts | 119° |
| 2026-04-20 06:55 | 42.59898 | 9.41220 | 41025 ft | 544 kts | 119° |
| 2026-04-20 06:55 | 42.56630 | 9.50469 | 41022 ft | 544 kts | 111° |
| 2026-04-20 06:56 | 42.54011 | 9.60008 | 41023 ft | 543 kts | 109° |
| 2026-04-20 06:56 | 42.51474 | 9.69653 | 41017 ft | 543 kts | 109° |
| 2026-04-20 06:57 | 42.49404 | 9.79469 | 41008 ft | 542 kts | 104° |
| 2026-04-20 06:57 | 42.46586 | 9.88907 | 41011 ft | 541 kts | 122° |
| 2026-04-20 06:58 | 42.42167 | 9.97128 | 41006 ft | 539 kts | 130° |
| 2026-04-20 06:58 | 42.37428 | 10.04992 | 41005 ft | 539 kts | 131° |
| 2026-04-20 06:59 | 42.32673 | 10.12753 | 41008 ft | 539 kts | 131° |
| 2026-04-20 06:59 | 42.27895 | 10.20597 | 41011 ft | 539 kts | 130° |
| 2026-04-20 07:00 | 42.23138 | 10.28434 | 40998 ft | 540 kts | 130° |
| 2026-04-20 07:00 | 42.18379 | 10.36265 | 40994 ft | 540 kts | 130° |
| 2026-04-20 07:01 | 42.13643 | 10.44049 | 40981 ft | 540 kts | 130° |
| 2026-04-20 07:01 | 42.08863 | 10.51869 | 41006 ft | 540 kts | 131° |
| 2026-04-20 07:02 | 42.04079 | 10.59670 | 41005 ft | 540 kts | 131° |
| 2026-04-20 07:02 | 41.99283 | 10.67472 | 40996 ft | 541 kts | 131° |
| 2026-04-20 07:03 | 41.94483 | 10.75262 | 41004 ft | 541 kts | 131° |
| 2026-04-20 07:03 | 41.89683 | 10.83034 | 41010 ft | 541 kts | 131° |
| 2026-04-20 07:04 | 41.84871 | 10.90805 | 41021 ft | 541 kts | 131° |
| 2026-04-20 07:04 | 41.80081 | 10.98519 | 41022 ft | 541 kts | 131° |
| 2026-04-20 07:05 | 41.75260 | 11.06265 | 41021 ft | 541 kts | 131° |
| 2026-04-20 07:05 | 41.70428 | 11.14008 | 41023 ft | 541 kts | 131° |
| 2026-04-20 07:06 | 41.65594 | 11.21734 | 41025 ft | 541 kts | 131° |
| 2026-04-20 07:06 | 41.60752 | 11.29454 | 41027 ft | 541 kts | 131° |
| 2026-04-20 07:07 | 41.55916 | 11.37144 | 41029 ft | 541 kts | 131° |
| 2026-04-20 07:07 | 41.51075 | 11.44821 | 41037 ft | 540 kts | 131° |
| 2026-04-20 07:08 | 41.46261 | 11.52437 | 41035 ft | 540 kts | 131° |
| 2026-04-20 07:08 | 41.41410 | 11.60092 | 41033 ft | 540 kts | 131° |
| 2026-04-20 07:09 | 41.36551 | 11.67740 | 41033 ft | 541 kts | 131° |
| 2026-04-20 07:09 | 41.31681 | 11.75386 | 41036 ft | 541 kts | 131° |
| 2026-04-20 07:10 | 41.26803 | 11.83025 | 41035 ft | 541 kts | 132° |
| 2026-04-20 07:10 | 41.21952 | 11.90603 | 41039 ft | 541 kts | 132° |
| 2026-04-20 07:11 | 41.17069 | 11.98212 | 41039 ft | 541 kts | 132° |
| 2026-04-20 07:11 | 41.12182 | 12.05808 | 41041 ft | 541 kts | 132° |
| 2026-04-20 07:12 | 41.07287 | 12.13397 | 41042 ft | 541 kts | 132° |
| 2026-04-20 07:12 | 41.02387 | 12.20975 | 41046 ft | 541 kts | 132° |
| 2026-04-20 07:13 | 40.97486 | 12.28536 | 41049 ft | 541 kts | 132° |
| 2026-04-20 07:13 | 40.92575 | 12.36093 | 41050 ft | 541 kts | 132° |
| 2026-04-20 07:14 | 40.87661 | 12.43636 | 41046 ft | 542 kts | 132° |
| 2026-04-20 07:14 | 40.82735 | 12.51177 | 41053 ft | 542 kts | 132° |
| 2026-04-20 07:15 | 40.77829 | 12.58672 | 41056 ft | 542 kts | 133° |
| 2026-04-20 07:15 | 40.72882 | 12.66208 | 41059 ft | 542 kts | 133° |
| 2026-04-20 07:16 | 40.67939 | 12.73720 | 41059 ft | 542 kts | 133° |
| 2026-04-20 07:16 | 40.62990 | 12.81224 | 41046 ft | 543 kts | 133° |
| 2026-04-20 07:17 | 40.58032 | 12.88723 | 41062 ft | 543 kts | 133° |
| 2026-04-20 07:17 | 40.53069 | 12.96210 | 41064 ft | 543 kts | 133° |
| 2026-04-20 07:18 | 40.48135 | 13.03635 | 41068 ft | 543 kts | 133° |
| 2026-04-20 07:18 | 40.43161 | 13.11103 | 41068 ft | 543 kts | 133° |
| 2026-04-20 07:19 | 40.38153 | 13.18604 | 41069 ft | 543 kts | 133° |
| 2026-04-20 07:19 | 40.33202 | 13.26001 | 41072 ft | 543 kts | 133° |
| 2026-04-20 07:20 | 40.28226 | 13.33453 | 41072 ft | 544 kts | 131° |
| 2026-04-20 07:20 | 40.23520 | 13.41225 | 41077 ft | 545 kts | 129° |
| 2026-04-20 07:21 | 40.18920 | 13.49104 | 41077 ft | 545 kts | 129° |
| 2026-04-20 07:21 | 40.14275 | 13.56936 | 41078 ft | 544 kts | 129° |
| 2026-04-20 07:22 | 40.09599 | 13.64710 | 41056 ft | 544 kts | 130° |
| 2026-04-20 07:22 | 40.04903 | 13.72467 | 41083 ft | 544 kts | 130° |
| 2026-04-20 07:23 | 40.00203 | 13.80214 | 41080 ft | 544 kts | 130° |
| 2026-04-20 07:23 | 39.95524 | 13.87911 | 41075 ft | 544 kts | 130° |
| 2026-04-20 07:24 | 39.90804 | 13.95658 | 41079 ft | 545 kts | 130° |
| 2026-04-20 07:24 | 39.86090 | 14.03377 | 41093 ft | 544 kts | 130° |
| 2026-04-20 07:25 | 39.81367 | 14.11090 | 41081 ft | 545 kts | 130° |
| 2026-04-20 07:25 | 39.77440 | 14.17491 | 41082 ft | 545 kts | 130° |
| 2026-04-20 07:26 | 39.72708 | 14.25183 | 41086 ft | 544 kts | 130° |
| 2026-04-20 07:26 | 39.67968 | 14.32872 | 41089 ft | 544 kts | 130° |
| 2026-04-20 07:27 | 39.63260 | 14.40491 | 41089 ft | 544 kts | 130° |
| 2026-04-20 07:27 | 39.58520 | 14.48142 | 41088 ft | 544 kts | 130° |
| 2026-04-20 07:28 | 39.53770 | 14.55791 | 41092 ft | 544 kts | 130° |
| 2026-04-20 07:28 | 39.49016 | 14.63426 | 41085 ft | 545 kts | 130° |
| 2026-04-20 07:29 | 39.44256 | 14.71055 | 41088 ft | 545 kts | 130° |
| 2026-04-20 07:29 | 39.39486 | 14.78680 | 41090 ft | 545 kts | 130° |
| 2026-04-20 07:30 | 39.34716 | 14.86287 | 41092 ft | 545 kts | 130° |
| 2026-04-20 07:30 | 39.29937 | 14.93889 | 41096 ft | 545 kts | 130° |
| 2026-04-20 07:31 | 39.25188 | 15.01427 | 41088 ft | 545 kts | 130° |
| 2026-04-20 07:31 | 39.20397 | 15.09013 | 41095 ft | 545 kts | 131° |
| 2026-04-20 07:32 | 39.15602 | 15.16588 | 41094 ft | 545 kts | 131° |
| 2026-04-20 07:32 | 39.10805 | 15.24146 | 41095 ft | 545 kts | 131° |
| 2026-04-20 07:33 | 39.06000 | 15.31700 | 41098 ft | 545 kts | 131° |
| 2026-04-20 07:33 | 39.01225 | 15.39189 | 41095 ft | 545 kts | 131° |
| 2026-04-20 07:34 | 38.96413 | 15.46718 | 41093 ft | 545 kts | 131° |
| 2026-04-20 07:34 | 38.91591 | 15.54245 | 41097 ft | 545 kts | 131° |
| 2026-04-20 07:35 | 38.84351 | 15.65513 | 41107 ft | 545 kts | 131° |
| 2026-04-20 07:35 | 38.79510 | 15.73025 | 41101 ft | 545 kts | 131° |
| 2026-04-20 07:36 | 38.74672 | 15.80516 | 41103 ft | 546 kts | 131° |
| 2026-04-20 07:36 | 38.69826 | 15.88000 | 41092 ft | 545 kts | 131° |
| 2026-04-20 07:37 | 38.64978 | 15.95470 | 41106 ft | 545 kts | 131° |
| 2026-04-20 07:37 | 38.60159 | 16.02879 | 41107 ft | 545 kts | 131° |
| 2026-04-20 07:38 | 38.55304 | 16.10326 | 41103 ft | 546 kts | 131° |
| 2026-04-20 07:38 | 38.50440 | 16.17767 | 41102 ft | 546 kts | 131° |
| 2026-04-20 07:39 | 38.45566 | 16.25209 | 41091 ft | 546 kts | 131° |
| 2026-04-20 07:39 | 38.40696 | 16.32628 | 41091 ft | 545 kts | 131° |
| 2026-04-20 07:40 | 38.35816 | 16.40044 | 41082 ft | 546 kts | 131° |
| 2026-04-20 07:40 | 38.30929 | 16.47453 | 41081 ft | 546 kts | 131° |
| 2026-04-20 07:41 | 38.26038 | 16.54852 | 41076 ft | 546 kts | 131° |
| 2026-04-20 07:41 | 38.21141 | 16.62242 | 41072 ft | 546 kts | 131° |
| 2026-04-20 07:42 | 38.16240 | 16.69622 | 41076 ft | 546 kts | 132° |
| 2026-04-20 07:42 | 38.11344 | 16.77012 | 41070 ft | 547 kts | 130° |
| 2026-04-20 07:43 | 38.07050 | 16.84998 | 41077 ft | 548 kts | 124° |
| 2026-04-20 07:43 | 38.02968 | 16.93159 | 41081 ft | 548 kts | 123° |
| 2026-04-20 07:44 | 37.98938 | 17.01295 | 41081 ft | 548 kts | 123° |
| 2026-04-20 07:44 | 37.94871 | 17.09461 | 41083 ft | 548 kts | 123° |
| 2026-04-20 07:45 | 37.90783 | 17.17623 | 41082 ft | 548 kts | 123° |
| 2026-04-20 07:45 | 37.86679 | 17.25786 | 41085 ft | 549 kts | 123° |
| 2026-04-20 07:46 | 37.82581 | 17.33919 | 41082 ft | 548 kts | 123° |
| 2026-04-20 07:46 | 37.78474 | 17.42050 | 41094 ft | 549 kts | 123° |
| 2026-04-20 07:47 | 37.74383 | 17.50128 | 41088 ft | 549 kts | 123° |
| 2026-04-20 07:47 | 37.70260 | 17.58251 | 41089 ft | 549 kts | 123° |
| 2026-04-20 07:48 | 37.66128 | 17.66372 | 41097 ft | 549 kts | 123° |
| 2026-04-20 07:48 | 37.61988 | 17.74489 | 41102 ft | 549 kts | 123° |
| 2026-04-20 07:49 | 37.57850 | 17.82582 | 41097 ft | 549 kts | 123° |
| 2026-04-20 07:49 | 37.53732 | 17.90616 | 41100 ft | 549 kts | 123° |
| 2026-04-20 07:50 | 37.49583 | 17.98691 | 41080 ft | 549 kts | 124° |
| 2026-04-20 07:50 | 37.45426 | 18.06761 | 41102 ft | 549 kts | 124° |
| 2026-04-20 07:51 | 37.41265 | 18.14820 | 41107 ft | 549 kts | 124° |
| 2026-04-20 07:51 | 37.37091 | 18.22883 | 41108 ft | 549 kts | 124° |
| 2026-04-20 07:52 | 37.32953 | 18.30859 | 41106 ft | 549 kts | 124° |
| 2026-04-20 07:52 | 37.28775 | 18.38893 | 41107 ft | 549 kts | 124° |
| 2026-04-20 07:53 | 37.24590 | 18.46921 | 41111 ft | 549 kts | 124° |
| 2026-04-20 07:53 | 37.20399 | 18.54940 | 41110 ft | 549 kts | 124° |
| 2026-04-20 07:54 | 37.16210 | 18.62937 | 41109 ft | 549 kts | 124° |
| 2026-04-20 07:54 | 37.12013 | 18.70929 | 41117 ft | 548 kts | 124° |
| 2026-04-20 07:55 | 37.07839 | 18.78860 | 41125 ft | 548 kts | 124° |
| 2026-04-20 07:55 | 37.03635 | 18.86827 | 41115 ft | 548 kts | 124° |
| 2026-04-20 07:56 | 36.99429 | 18.94781 | 41118 ft | 548 kts | 124° |
| 2026-04-20 07:56 | 36.95228 | 19.02733 | 41117 ft | 548 kts | 124° |
| 2026-04-20 07:57 | 36.91176 | 19.10757 | 41119 ft | 548 kts | 123° |
| 2026-04-20 07:57 | 36.87146 | 19.18842 | 41121 ft | 548 kts | 123° |
| 2026-04-20 07:58 | 36.83092 | 19.26909 | 41124 ft | 548 kts | 123° |
| 2026-04-20 07:58 | 36.79019 | 19.34953 | 41124 ft | 548 kts | 123° |
| 2026-04-20 07:59 | 36.74930 | 19.42994 | 41126 ft | 548 kts | 123° |
| 2026-04-20 07:59 | 36.70845 | 19.51012 | 41126 ft | 548 kts | 123° |
| 2026-04-20 08:00 | 36.66752 | 19.59027 | 41129 ft | 548 kts | 123° |
| 2026-04-20 08:00 | 36.62651 | 19.67039 | 41129 ft | 548 kts | 123° |
| 2026-04-20 08:01 | 36.58573 | 19.74988 | 41127 ft | 548 kts | 123° |
| 2026-04-20 08:01 | 36.54467 | 19.82973 | 41127 ft | 548 kts | 124° |
| 2026-04-20 08:02 | 36.50357 | 19.90948 | 41127 ft | 548 kts | 124° |
| 2026-04-20 08:02 | 36.46230 | 19.98935 | 41127 ft | 548 kts | 124° |
| 2026-04-20 08:03 | 36.42101 | 20.06908 | 41127 ft | 548 kts | 124° |
| 2026-04-20 08:03 | 36.37973 | 20.14861 | 41127 ft | 548 kts | 124° |
| 2026-04-20 08:04 | 36.33856 | 20.22773 | 41130 ft | 549 kts | 124° |
| 2026-04-20 08:04 | 36.29710 | 20.30723 | 41129 ft | 549 kts | 124° |
| 2026-04-20 08:05 | 36.25560 | 20.38662 | 41130 ft | 549 kts | 124° |
| 2026-04-20 08:05 | 36.21403 | 20.46595 | 41130 ft | 549 kts | 124° |
| 2026-04-20 08:06 | 36.17239 | 20.54524 | 41129 ft | 549 kts | 124° |
| 2026-04-20 08:06 | 36.13099 | 20.62389 | 41131 ft | 549 kts | 124° |
| 2026-04-20 08:07 | 36.08922 | 20.70307 | 41128 ft | 549 kts | 125° |
| 2026-04-20 08:07 | 36.04739 | 20.78217 | 41128 ft | 549 kts | 125° |
| 2026-04-20 08:08 | 36.00575 | 20.86073 | 41130 ft | 549 kts | 125° |
| 2026-04-20 08:08 | 35.96377 | 20.93974 | 41131 ft | 549 kts | 125° |
| 2026-04-20 08:09 | 35.92179 | 21.01859 | 41131 ft | 549 kts | 125° |
| 2026-04-20 08:09 | 35.87980 | 21.09727 | 41130 ft | 549 kts | 125° |
| 2026-04-20 08:10 | 35.83772 | 21.17593 | 41127 ft | 549 kts | 125° |
| 2026-04-20 08:10 | 35.79563 | 21.25444 | 41127 ft | 549 kts | 125° |
| 2026-04-20 08:11 | 35.75348 | 21.33289 | 41123 ft | 549 kts | 125° |
| 2026-04-20 08:11 | 35.71125 | 21.41131 | 41131 ft | 549 kts | 126° |
| 2026-04-20 08:12 | 35.66922 | 21.48917 | 41130 ft | 549 kts | 126° |
| 2026-04-20 08:12 | 35.62684 | 21.56750 | 41125 ft | 549 kts | 126° |
| 2026-04-20 08:13 | 35.58442 | 21.64574 | 41125 ft | 549 kts | 126° |
| 2026-04-20 08:13 | 35.54197 | 21.72384 | 41125 ft | 549 kts | 126° |
| 2026-04-20 08:14 | 35.49976 | 21.80135 | 41131 ft | 549 kts | 126° |
| 2026-04-20 08:14 | 35.46572 | 21.86374 | 41128 ft | 550 kts | 126° |
| 2026-04-20 08:15 | 35.42339 | 21.94112 | 41130 ft | 550 kts | 126° |
| 2026-04-20 08:15 | 35.38067 | 22.01908 | 41130 ft | 550 kts | 126° |
| 2026-04-20 08:16 | 35.33794 | 22.09686 | 41129 ft | 550 kts | 126° |
| 2026-04-20 08:16 | 35.29517 | 22.17456 | 41130 ft | 550 kts | 126° |
| 2026-04-20 08:17 | 35.25244 | 22.25200 | 41127 ft | 550 kts | 126° |
| 2026-04-20 08:17 | 35.20957 | 22.32953 | 41127 ft | 550 kts | 126° |
| 2026-04-20 08:18 | 35.16663 | 22.40703 | 41129 ft | 550 kts | 126° |
| 2026-04-20 08:18 | 35.12363 | 22.48444 | 41131 ft | 550 kts | 126° |
| 2026-04-20 08:19 | 35.08782 | 22.54879 | 41127 ft | 550 kts | 126° |
| 2026-04-20 08:19 | 35.03777 | 22.63853 | 41118 ft | 550 kts | 127° |
| 2026-04-20 08:20 | 35.00188 | 22.70274 | 41127 ft | 551 kts | 127° |
| 2026-04-20 08:20 | 34.95861 | 22.77999 | 41124 ft | 551 kts | 127° |
| 2026-04-20 08:21 | 34.91525 | 22.85723 | 41121 ft | 552 kts | 127° |
| 2026-04-20 08:21 | 34.87187 | 22.93435 | 41121 ft | 552 kts | 127° |
| 2026-04-20 08:22 | 34.82838 | 23.01150 | 41119 ft | 552 kts | 127° |
| 2026-04-20 08:22 | 34.78489 | 23.08847 | 41118 ft | 552 kts | 127° |
| 2026-04-20 08:23 | 34.74161 | 23.16492 | 41116 ft | 552 kts | 127° |
| 2026-04-20 08:23 | 34.69802 | 23.24173 | 41112 ft | 552 kts | 127° |
| 2026-04-20 08:24 | 34.65436 | 23.31852 | 41113 ft | 553 kts | 127° |
| 2026-04-20 08:24 | 34.61054 | 23.39540 | 41113 ft | 554 kts | 127° |
| 2026-04-20 08:25 | 34.56664 | 23.47228 | 41111 ft | 554 kts | 127° |
| 2026-04-20 08:25 | 34.52270 | 23.54905 | 41110 ft | 554 kts | 127° |
| 2026-04-20 08:26 | 34.47873 | 23.62571 | 41108 ft | 554 kts | 127° |
| 2026-04-20 08:26 | 34.43466 | 23.70238 | 41108 ft | 554 kts | 128° |
| 2026-04-20 08:27 | 34.39060 | 23.77887 | 41106 ft | 554 kts | 128° |
| 2026-04-20 08:27 | 34.34644 | 23.85537 | 41107 ft | 554 kts | 128° |
| 2026-04-20 08:28 | 34.30222 | 23.93180 | 41098 ft | 555 kts | 128° |
| 2026-04-20 08:28 | 34.25790 | 24.00825 | 41105 ft | 556 kts | 128° |
| 2026-04-20 08:29 | 34.21347 | 24.08473 | 41101 ft | 556 kts | 128° |
| 2026-04-20 08:29 | 34.16900 | 24.16112 | 41105 ft | 556 kts | 128° |
| 2026-04-20 08:30 | 34.12450 | 24.23739 | 41105 ft | 556 kts | 128° |
| 2026-04-20 08:30 | 34.07989 | 24.31369 | 41102 ft | 556 kts | 128° |
| 2026-04-20 08:31 | 34.03532 | 24.38978 | 41106 ft | 556 kts | 128° |
| 2026-04-20 08:31 | 33.98721 | 24.46199 | 41107 ft | 549 kts | 140° |
| 2026-04-20 08:32 | 33.93193 | 24.52427 | 41091 ft | 547 kts | 142° |
| 2026-04-20 08:32 | 33.87510 | 24.58513 | 41093 ft | 547 kts | 143° |
| 2026-04-20 08:33 | 33.78962 | 24.67614 | 41110 ft | 547 kts | 143° |
| 2026-04-20 08:34 | 33.73277 | 24.73689 | 41095 ft | 547 kts | 143° |
| 2026-04-20 08:34 | 33.67592 | 24.79764 | 41091 ft | 547 kts | 143° |
| 2026-04-20 08:35 | 33.61904 | 24.85832 | 41099 ft | 547 kts | 143° |
| 2026-04-20 08:35 | 33.56209 | 24.91894 | 41095 ft | 547 kts | 143° |
| 2026-04-20 08:36 | 33.50519 | 24.97939 | 41103 ft | 547 kts | 143° |
| 2026-04-20 08:36 | 33.44821 | 25.03982 | 41100 ft | 547 kts | 143° |
| 2026-04-20 08:37 | 33.39124 | 25.10013 | 41104 ft | 547 kts | 143° |
| 2026-04-20 08:37 | 33.33418 | 25.16042 | 41101 ft | 547 kts | 143° |
| 2026-04-20 08:38 | 33.27713 | 25.22058 | 41104 ft | 547 kts | 143° |
| 2026-04-20 08:38 | 33.22042 | 25.28029 | 41101 ft | 547 kts | 143° |
| 2026-04-20 08:39 | 33.16335 | 25.34027 | 41104 ft | 547 kts | 143° |
| 2026-04-20 08:39 | 33.10624 | 25.40018 | 41104 ft | 546 kts | 143° |
| 2026-04-20 08:40 | 33.04915 | 25.45996 | 41105 ft | 546 kts | 143° |
| 2026-04-20 08:40 | 32.99203 | 25.51967 | 41094 ft | 546 kts | 143° |
| 2026-04-20 08:41 | 32.93483 | 25.57934 | 41102 ft | 546 kts | 143° |
| 2026-04-20 08:41 | 32.87768 | 25.63887 | 41106 ft | 546 kts | 143° |
| 2026-04-20 08:42 | 32.82048 | 25.69834 | 41101 ft | 546 kts | 143° |
| 2026-04-20 08:42 | 32.76330 | 25.75768 | 41105 ft | 546 kts | 143° |
| 2026-04-20 08:43 | 32.70611 | 25.81692 | 41101 ft | 545 kts | 143° |
| 2026-04-20 08:43 | 32.64893 | 25.87606 | 41102 ft | 546 kts | 144° |
| 2026-04-20 08:44 | 32.59167 | 25.93517 | 41102 ft | 546 kts | 144° |
| 2026-04-20 08:44 | 32.53438 | 25.99421 | 41102 ft | 545 kts | 144° |
| 2026-04-20 08:45 | 32.47714 | 26.05309 | 41101 ft | 545 kts | 144° |
| 2026-04-20 08:45 | 32.41990 | 26.11187 | 41102 ft | 545 kts | 144° |
| 2026-04-20 08:46 | 32.36256 | 26.17065 | 41097 ft | 545 kts | 144° |
| 2026-04-20 08:46 | 32.30527 | 26.22927 | 41099 ft | 545 kts | 144° |
| 2026-04-20 08:47 | 32.24797 | 26.28780 | 41102 ft | 544 kts | 144° |
| 2026-04-20 08:47 | 32.19062 | 26.34629 | 41103 ft | 544 kts | 144° |
| 2026-04-20 08:48 | 32.13328 | 26.40466 | 41100 ft | 544 kts | 144° |
| 2026-04-20 08:48 | 32.07591 | 26.46297 | 41100 ft | 544 kts | 144° |
| 2026-04-20 08:49 | 32.01854 | 26.52117 | 41106 ft | 544 kts | 144° |
| 2026-04-20 08:49 | 31.96148 | 26.57895 | 41108 ft | 544 kts | 144° |
| 2026-04-20 08:50 | 31.90405 | 26.63702 | 41095 ft | 544 kts | 144° |
| 2026-04-20 08:50 | 31.84655 | 26.69506 | 41091 ft | 544 kts | 144° |
| 2026-04-20 08:51 | 31.78907 | 26.75297 | 41085 ft | 544 kts | 144° |
| 2026-04-20 08:51 | 31.73155 | 26.81083 | 41079 ft | 544 kts | 145° |
| 2026-04-20 08:52 | 31.67399 | 26.86863 | 41092 ft | 545 kts | 145° |
| 2026-04-20 08:52 | 31.61644 | 26.92633 | 41088 ft | 544 kts | 145° |
| 2026-04-20 08:53 | 31.55892 | 26.98390 | 41087 ft | 544 kts | 145° |
| 2026-04-20 08:53 | 31.50136 | 27.04141 | 41086 ft | 543 kts | 145° |
| 2026-04-20 08:54 | 31.44380 | 27.09882 | 41082 ft | 543 kts | 145° |
| 2026-04-20 08:54 | 31.38619 | 27.15619 | 41072 ft | 544 kts | 145° |
| 2026-04-20 08:55 | 31.32931 | 27.21494 | 41074 ft | 550 kts | 139° |
| 2026-04-20 08:55 | 31.28213 | 27.28615 | 41073 ft | 556 kts | 129° |
| 2026-04-20 08:56 | 31.23848 | 27.36104 | 41074 ft | 558 kts | 128° |
| 2026-04-20 08:56 | 31.19538 | 27.43637 | 41075 ft | 558 kts | 128° |
| 2026-04-20 08:57 | 31.15235 | 27.51096 | 41075 ft | 558 kts | 128° |
| 2026-04-20 08:57 | 31.10871 | 27.58578 | 41076 ft | 557 kts | 129° |
| 2026-04-20 08:58 | 31.06441 | 27.65989 | 41078 ft | 557 kts | 129° |
| 2026-04-20 08:58 | 31.01989 | 27.73393 | 41082 ft | 559 kts | 130° |
| 2026-04-20 08:59 | 30.97527 | 27.80828 | 41081 ft | 560 kts | 130° |
| 2026-04-20 08:59 | 30.93062 | 27.88272 | 41080 ft | 560 kts | 130° |
| 2026-04-20 09:00 | 30.88598 | 27.95705 | 41082 ft | 560 kts | 130° |
| 2026-04-20 09:00 | 30.84129 | 28.03130 | 41084 ft | 560 kts | 130° |
| 2026-04-20 09:01 | 30.79653 | 28.10551 | 41082 ft | 560 kts | 130° |
| 2026-04-20 09:01 | 30.75168 | 28.17972 | 41079 ft | 561 kts | 130° |
| 2026-04-20 09:02 | 30.70714 | 28.25330 | 41079 ft | 561 kts | 130° |
| 2026-04-20 09:02 | 30.66223 | 28.32735 | 41079 ft | 561 kts | 130° |
| 2026-04-20 09:03 | 30.61721 | 28.40144 | 41076 ft | 563 kts | 130° |
| 2026-04-20 09:03 | 30.57192 | 28.47580 | 41074 ft | 565 kts | 130° |
| 2026-04-20 09:04 | 30.52655 | 28.55020 | 41077 ft | 565 kts | 130° |
| 2026-04-20 09:04 | 30.48116 | 28.62451 | 41077 ft | 565 kts | 130° |
| 2026-04-20 09:05 | 30.43569 | 28.69877 | 41074 ft | 565 kts | 131° |
| 2026-04-20 09:05 | 30.39013 | 28.77305 | 41081 ft | 566 kts | 131° |
| 2026-04-20 09:06 | 30.34445 | 28.84737 | 41074 ft | 566 kts | 131° |
| 2026-04-20 09:06 | 30.29879 | 28.92155 | 41073 ft | 566 kts | 131° |
| 2026-04-20 09:07 | 30.25335 | 28.99523 | 41071 ft | 566 kts | 131° |
| 2026-04-20 09:07 | 30.20749 | 29.06946 | 41072 ft | 568 kts | 131° |
| 2026-04-20 09:08 | 30.16146 | 29.14388 | 41057 ft | 570 kts | 131° |
| 2026-04-20 09:08 | 30.11541 | 29.21858 | 41068 ft | 571 kts | 131° |
| 2026-04-20 09:09 | 30.06992 | 29.29378 | 41058 ft | 571 kts | 130° |
| 2026-04-20 09:09 | 30.02463 | 29.36915 | 41056 ft | 571 kts | 131° |
| 2026-04-20 09:10 | 29.97921 | 29.44439 | 41059 ft | 571 kts | 131° |
| 2026-04-20 09:10 | 29.93378 | 29.51930 | 41055 ft | 571 kts | 131° |
| 2026-04-20 09:11 | 29.88848 | 29.59382 | 41062 ft | 571 kts | 131° |
| 2026-04-20 09:11 | 29.85053 | 29.65613 | 41059 ft | 571 kts | 131° |
| 2026-04-20 09:12 | 29.80487 | 29.73101 | 41055 ft | 571 kts | 131° |
| 2026-04-20 09:12 | 29.75919 | 29.80577 | 41057 ft | 571 kts | 131° |
| 2026-04-20 09:13 | 29.71348 | 29.88045 | 41052 ft | 571 kts | 131° |
| 2026-04-20 09:13 | 29.66771 | 29.95509 | 41053 ft | 571 kts | 131° |
| 2026-04-20 09:14 | 29.62187 | 30.02970 | 41053 ft | 571 kts | 131° |
| 2026-04-20 09:14 | 29.57600 | 30.10423 | 41050 ft | 571 kts | 131° |
| 2026-04-20 09:15 | 29.53040 | 30.17818 | 41049 ft | 572 kts | 132° |
| 2026-04-20 09:15 | 29.48436 | 30.25271 | 41050 ft | 572 kts | 132° |
| 2026-04-20 09:16 | 29.43832 | 30.32711 | 41054 ft | 572 kts | 132° |
| 2026-04-20 09:16 | 29.39058 | 30.39964 | 41045 ft | 564 kts | 140° |
| 2026-04-20 09:17 | 29.33724 | 30.46568 | 41053 ft | 564 kts | 141° |
| 2026-04-20 09:17 | 29.28286 | 30.53043 | 41054 ft | 563 kts | 142° |
| 2026-04-20 09:18 | 29.22837 | 30.59492 | 41059 ft | 563 kts | 142° |
| 2026-04-20 09:18 | 29.17391 | 30.65949 | 41055 ft | 563 kts | 142° |
| 2026-04-20 09:19 | 29.11955 | 30.72400 | 41056 ft | 563 kts | 142° |
| 2026-04-20 09:19 | 29.06512 | 30.78852 | 41057 ft | 563 kts | 142° |
| 2026-04-20 09:20 | 29.01069 | 30.85293 | 41049 ft | 564 kts | 142° |
| 2026-04-20 09:20 | 28.95612 | 30.91739 | 41060 ft | 564 kts | 142° |
| 2026-04-20 09:21 | 28.90151 | 30.98180 | 41053 ft | 565 kts | 142° |
| 2026-04-20 09:21 | 28.84681 | 31.04620 | 41064 ft | 565 kts | 142° |
| 2026-04-20 09:22 | 28.79205 | 31.11059 | 41055 ft | 565 kts | 142° |
| 2026-04-20 09:22 | 28.73724 | 31.17492 | 41056 ft | 565 kts | 142° |
| 2026-04-20 09:23 | 28.68251 | 31.23931 | 41046 ft | 567 kts | 141° |
| 2026-04-20 09:23 | 28.62968 | 31.30545 | 41057 ft | 570 kts | 140° |
| 2026-04-20 09:24 | 28.57697 | 31.37293 | 41059 ft | 570 kts | 140° |
| 2026-04-20 09:24 | 28.52406 | 31.44007 | 41064 ft | 570 kts | 140° |
| 2026-04-20 09:25 | 28.47086 | 31.50692 | 41061 ft | 569 kts | 140° |
| 2026-04-20 09:25 | 28.41757 | 31.57360 | 41064 ft | 569 kts | 141° |
| 2026-04-20 09:26 | 28.36431 | 31.64015 | 41058 ft | 569 kts | 141° |
| 2026-04-20 09:26 | 28.31099 | 31.70670 | 41026 ft | 569 kts | 141° |
| 2026-04-20 09:27 | 28.25796 | 31.77278 | 41053 ft | 571 kts | 141° |
| 2026-04-20 09:27 | 28.20441 | 31.83941 | 41051 ft | 571 kts | 141° |
| 2026-04-20 09:28 | 28.15089 | 31.90591 | 41044 ft | 571 kts | 141° |
| 2026-04-20 09:28 | 28.09731 | 31.97238 | 41039 ft | 571 kts | 141° |
| 2026-04-20 09:29 | 28.04429 | 32.03950 | 41040 ft | 578 kts | 136° |
| 2026-04-20 09:29 | 28.03620 | 32.05184 | 41040 ft | 582 kts | 132° |
| 2026-04-20 09:30 | 27.90294 | 32.32198 | 40930 ft | 592 kts | 126° |
| 2026-04-20 09:31 | 27.88330 | 32.36285 | 40976 ft | 592 kts | 126° |
| 2026-04-20 09:31 | 27.84370 | 32.44468 | 40961 ft | 594 kts | 126° |
| 2026-04-20 09:32 | 27.80395 | 32.52654 | 40956 ft | 594 kts | 126° |
| 2026-04-20 09:32 | 27.76426 | 32.60819 | 41171 ft | 590 kts | 126° |
| 2026-04-20 09:32 | 27.74457 | 32.64869 | 41408 ft | 587 kts | 126° |
| 2026-04-20 09:33 | 27.72495 | 32.68899 | 41677 ft | 584 kts | 126° |
| 2026-04-20 09:33 | 27.70542 | 32.72904 | 41928 ft | 582 kts | 126° |
| 2026-04-20 09:33 | 27.68594 | 32.76893 | 42185 ft | 579 kts | 126° |
| 2026-04-20 09:33 | 27.66654 | 32.80861 | 42451 ft | 576 kts | 126° |
| 2026-04-20 09:34 | 27.64723 | 32.84807 | 42717 ft | 573 kts | 126° |
| 2026-04-20 09:34 | 27.62801 | 32.88732 | 42927 ft | 572 kts | 126° |
| 2026-04-20 09:34 | 27.58934 | 32.96600 | 42951 ft | 576 kts | 126° |
| 2026-04-20 09:35 | 27.55038 | 33.04519 | 42952 ft | 580 kts | 126° |
| 2026-04-20 09:35 | 27.51109 | 33.12499 | 42953 ft | 584 kts | 126° |
| 2026-04-20 09:36 | 27.47158 | 33.20517 | 42949 ft | 586 kts | 127° |
| 2026-04-20 09:36 | 27.43214 | 33.28501 | 42951 ft | 588 kts | 127° |
| 2026-04-20 09:37 | 27.39233 | 33.36546 | 42950 ft | 589 kts | 127° |
| 2026-04-20 09:37 | 27.35248 | 33.44594 | 42894 ft | 589 kts | 127° |
| 2026-04-20 09:38 | 27.31251 | 33.52637 | 42952 ft | 589 kts | 127° |
| 2026-04-20 09:38 | 27.27252 | 33.60662 | 42953 ft | 589 kts | 127° |
| 2026-04-20 09:39 | 27.23247 | 33.68688 | 42951 ft | 589 kts | 127° |
| 2026-04-20 09:39 | 27.19238 | 33.76710 | 42939 ft | 589 kts | 127° |
| 2026-04-20 09:40 | 27.15806 | 33.85153 | 42938 ft | 597 kts | 119° |
| 2026-04-20 09:40 | 27.12688 | 33.93803 | 42938 ft | 598 kts | 118° |
| 2026-04-20 09:41 | 27.09631 | 34.02480 | 42939 ft | 598 kts | 118° |
| 2026-04-20 09:41 | 27.06560 | 34.11152 | 42937 ft | 597 kts | 118° |
| 2026-04-20 09:42 | 27.03470 | 34.19804 | 42936 ft | 597 kts | 118° |
| 2026-04-20 09:42 | 27.00372 | 34.28451 | 42936 ft | 597 kts | 118° |
| 2026-04-20 09:43 | 26.97266 | 34.37084 | 42931 ft | 597 kts | 118° |
| 2026-04-20 09:43 | 26.94175 | 34.45655 | 42933 ft | 597 kts | 118° |
| 2026-04-20 09:44 | 26.91062 | 34.54272 | 42928 ft | 597 kts | 118° |
| 2026-04-20 09:44 | 26.87942 | 34.62894 | 42923 ft | 597 kts | 118° |
| 2026-04-20 09:45 | 26.84821 | 34.71500 | 42930 ft | 597 kts | 118° |
| 2026-04-20 09:45 | 26.81694 | 34.80104 | 42926 ft | 596 kts | 118° |
| 2026-04-20 09:46 | 26.78562 | 34.88701 | 42926 ft | 596 kts | 118° |
| 2026-04-20 09:46 | 26.75430 | 34.97289 | 42926 ft | 596 kts | 118° |
| 2026-04-20 09:47 | 26.72294 | 35.05871 | 42917 ft | 596 kts | 119° |
| 2026-04-20 09:47 | 26.69151 | 35.14443 | 42918 ft | 596 kts | 119° |
| 2026-04-20 09:48 | 26.66003 | 35.23011 | 42919 ft | 596 kts | 119° |
| 2026-04-20 09:48 | 26.62853 | 35.31573 | 42910 ft | 596 kts | 119° |
| 2026-04-20 09:49 | 26.59695 | 35.40136 | 42910 ft | 596 kts | 119° |
| 2026-04-20 09:49 | 26.56534 | 35.48691 | 42909 ft | 596 kts | 119° |
| 2026-04-20 09:50 | 26.53323 | 35.57214 | 42903 ft | 595 kts | 120° |
| 2026-04-20 09:50 | 26.50060 | 35.65697 | 42898 ft | 595 kts | 120° |
| 2026-04-20 09:51 | 26.46793 | 35.74187 | 42894 ft | 595 kts | 120° |
| 2026-04-20 09:51 | 26.43535 | 35.82671 | 42898 ft | 596 kts | 120° |
| 2026-04-20 09:52 | 26.40263 | 35.91183 | 42890 ft | 597 kts | 120° |
| 2026-04-20 09:52 | 26.36985 | 35.99696 | 42888 ft | 598 kts | 120° |
| 2026-04-20 09:53 | 26.33698 | 36.08213 | 42880 ft | 598 kts | 120° |
| 2026-04-20 09:53 | 26.30402 | 36.16733 | 42884 ft | 599 kts | 120° |
| 2026-04-20 09:54 | 26.27101 | 36.25251 | 42878 ft | 598 kts | 120° |
| 2026-04-20 09:54 | 26.23816 | 36.33707 | 42884 ft | 599 kts | 119° |
| 2026-04-20 09:55 | 26.20504 | 36.42217 | 42884 ft | 599 kts | 120° |
| 2026-04-20 09:55 | 26.16996 | 36.50610 | 42887 ft | 594 kts | 124° |
| 2026-04-20 09:56 | 26.13095 | 36.58716 | 42869 ft | 594 kts | 126° |
| 2026-04-20 09:56 | 26.09119 | 36.66764 | 42870 ft | 593 kts | 126° |
| 2026-04-20 09:57 | 26.05131 | 36.74802 | 42850 ft | 593 kts | 126° |
| 2026-04-20 09:57 | 26.01151 | 36.82832 | 42869 ft | 593 kts | 126° |
| 2026-04-20 09:58 | 25.97172 | 36.90863 | 42870 ft | 593 kts | 126° |
| 2026-04-20 09:58 | 25.93190 | 36.98886 | 42867 ft | 593 kts | 126° |
| 2026-04-20 09:59 | 25.89882 | 37.05541 | 42865 ft | 592 kts | 126° |
| 2026-04-20 09:59 | 25.85224 | 37.14895 | 42864 ft | 592 kts | 126° |
| 2026-04-20 10:00 | 25.81237 | 37.22883 | 42865 ft | 592 kts | 126° |
| 2026-04-20 10:00 | 25.77286 | 37.30812 | 42871 ft | 590 kts | 126° |
| 2026-04-20 10:01 | 25.73323 | 37.38778 | 42835 ft | 589 kts | 125° |
| 2026-04-20 10:01 | 25.69362 | 37.46722 | 42878 ft | 588 kts | 125° |
| 2026-04-20 10:02 | 25.66070 | 37.53313 | 42884 ft | 587 kts | 126° |
| 2026-04-20 10:02 | 25.62112 | 37.61227 | 42883 ft | 587 kts | 126° |
| 2026-04-20 10:03 | 25.58152 | 37.69129 | 42875 ft | 587 kts | 126° |
| 2026-04-20 10:03 | 25.54184 | 37.77025 | 42868 ft | 586 kts | 126° |
| 2026-04-20 10:04 | 25.50216 | 37.84912 | 42864 ft | 586 kts | 126° |
| 2026-04-20 10:04 | 25.46247 | 37.92789 | 42855 ft | 586 kts | 126° |
| 2026-04-20 10:05 | 25.42276 | 38.00658 | 42858 ft | 584 kts | 126° |
| 2026-04-20 10:05 | 25.38342 | 38.08442 | 42845 ft | 583 kts | 126° |
| 2026-04-20 10:06 | 25.34392 | 38.16246 | 42854 ft | 581 kts | 126° |
| 2026-04-20 10:06 | 25.30439 | 38.24038 | 42838 ft | 581 kts | 125° |
| 2026-04-20 10:07 | 25.26478 | 38.31826 | 42848 ft | 582 kts | 125° |
| 2026-04-20 10:07 | 25.22512 | 38.39618 | 42854 ft | 582 kts | 125° |
| 2026-04-20 10:08 | 25.18541 | 38.47405 | 42860 ft | 582 kts | 125° |
| 2026-04-20 10:08 | 25.14566 | 38.55194 | 42859 ft | 582 kts | 125° |
| 2026-04-20 10:09 | 25.10579 | 38.62976 | 42840 ft | 582 kts | 125° |
| 2026-04-20 10:09 | 25.06586 | 38.70741 | 42874 ft | 582 kts | 125° |
| 2026-04-20 10:10 | 25.02587 | 38.78507 | 42883 ft | 582 kts | 125° |
| 2026-04-20 10:10 | 24.98590 | 38.86263 | 42890 ft | 581 kts | 125° |
| 2026-04-20 10:11 | 24.94603 | 38.94004 | 42894 ft | 580 kts | 125° |
| 2026-04-20 10:11 | 24.90617 | 39.01719 | 42895 ft | 579 kts | 125° |
| 2026-04-20 10:12 | 24.86629 | 39.09418 | 42901 ft | 579 kts | 125° |
| 2026-04-20 10:12 | 24.82635 | 39.17113 | 42907 ft | 579 kts | 125° |
| 2026-04-20 10:13 | 24.78655 | 39.24770 | 42913 ft | 581 kts | 125° |
| 2026-04-20 10:13 | 24.74641 | 39.32482 | 42916 ft | 581 kts | 125° |
| 2026-04-20 10:14 | 24.70619 | 39.40196 | 42924 ft | 582 kts | 125° |
| 2026-04-20 10:14 | 24.66593 | 39.47907 | 42922 ft | 582 kts | 125° |
| 2026-04-20 10:15 | 24.62564 | 39.55617 | 42922 ft | 581 kts | 125° |
| 2026-04-20 10:15 | 24.58535 | 39.63312 | 42910 ft | 580 kts | 125° |
| 2026-04-20 10:16 | 24.55131 | 39.71361 | 42914 ft | 588 kts | 109° |
| 2026-04-20 10:16 | 24.53715 | 39.80237 | 42912 ft | 591 kts | 98° |
| 2026-04-20 10:17 | 24.52848 | 39.89218 | 42921 ft | 591 kts | 96° |
| 2026-04-20 10:17 | 24.52065 | 39.98141 | 42917 ft | 591 kts | 96° |
| 2026-04-20 10:18 | 24.51233 | 40.07110 | 42939 ft | 590 kts | 97° |
| 2026-04-20 10:18 | 24.50362 | 40.16052 | 42942 ft | 589 kts | 97° |
| 2026-04-20 10:19 | 24.49477 | 40.24988 | 42945 ft | 588 kts | 97° |
| 2026-04-20 10:19 | 24.48590 | 40.33917 | 42937 ft | 588 kts | 97° |
| 2026-04-20 10:20 | 24.47701 | 40.42839 | 42946 ft | 588 kts | 97° |
| 2026-04-20 10:20 | 24.46806 | 40.51770 | 42948 ft | 588 kts | 97° |
| 2026-04-20 10:21 | 24.45907 | 40.60682 | 42955 ft | 588 kts | 97° |
| 2026-04-20 10:21 | 24.45007 | 40.69597 | 42960 ft | 588 kts | 97° |
| 2026-04-20 10:22 | 24.44094 | 40.78511 | 42964 ft | 588 kts | 97° |
| 2026-04-20 10:22 | 24.43175 | 40.87425 | 42955 ft | 588 kts | 97° |
| 2026-04-20 10:23 | 24.42251 | 40.96343 | 42960 ft | 588 kts | 97° |
| 2026-04-20 10:23 | 24.41324 | 41.05260 | 42966 ft | 588 kts | 97° |
| 2026-04-20 10:24 | 24.40393 | 41.14174 | 42960 ft | 588 kts | 97° |
| 2026-04-20 10:24 | 24.39457 | 41.23088 | 42974 ft | 588 kts | 97° |
| 2026-04-20 10:25 | 24.38516 | 41.31994 | 42978 ft | 588 kts | 97° |
| 2026-04-20 10:25 | 24.37570 | 41.40903 | 42979 ft | 587 kts | 97° |
| 2026-04-20 10:26 | 24.36621 | 41.49781 | 42984 ft | 586 kts | 97° |
| 2026-04-20 10:26 | 24.35667 | 41.58656 | 42975 ft | 585 kts | 97° |
| 2026-04-20 10:27 | 24.34717 | 41.67447 | 42985 ft | 584 kts | 97° |
| 2026-04-20 10:27 | 24.33756 | 41.76297 | 42988 ft | 584 kts | 97° |
| 2026-04-20 10:28 | 24.32344 | 41.85048 | 42994 ft | 584 kts | 105° |
| 2026-04-20 10:28 | 24.30202 | 41.93648 | 42991 ft | 585 kts | 107° |
| 2026-04-20 10:29 | 24.27929 | 42.02207 | 42992 ft | 586 kts | 108° |
| 2026-04-20 10:29 | 24.25637 | 42.10786 | 42991 ft | 586 kts | 108° |
| 2026-04-20 10:30 | 24.23360 | 42.19359 | 42994 ft | 586 kts | 108° |
| 2026-04-20 10:30 | 24.21094 | 42.27915 | 42993 ft | 584 kts | 108° |
| 2026-04-20 10:31 | 24.18831 | 42.36437 | 42991 ft | 582 kts | 108° |
| 2026-04-20 10:31 | 24.16566 | 42.44941 | 42987 ft | 581 kts | 108° |
| 2026-04-20 10:32 | 24.14302 | 42.53422 | 42985 ft | 580 kts | 108° |
| 2026-04-20 10:32 | 24.12034 | 42.61892 | 42974 ft | 580 kts | 108° |
| 2026-04-20 10:33 | 24.09762 | 42.70360 | 42984 ft | 580 kts | 108° |
| 2026-04-20 10:33 | 24.07484 | 42.78833 | 42991 ft | 580 kts | 108° |
| 2026-04-20 10:34 | 24.05217 | 42.87242 | 42988 ft | 580 kts | 108° |
| 2026-04-20 10:35 | 24.01785 | 42.99938 | 42986 ft | 580 kts | 108° |
| 2026-04-20 10:35 | 23.99486 | 43.08406 | 43000 ft | 582 kts | 108° |
| 2026-04-20 10:36 | 23.97177 | 43.16896 | 42998 ft | 583 kts | 108° |
| 2026-04-20 10:36 | 23.94862 | 43.25389 | 42997 ft | 583 kts | 108° |
| 2026-04-20 10:37 | 23.92543 | 43.33877 | 42996 ft | 583 kts | 108° |
| 2026-04-20 10:37 | 23.90218 | 43.42370 | 42992 ft | 583 kts | 108° |
| 2026-04-20 10:38 | 23.87893 | 43.50842 | 42989 ft | 582 kts | 108° |
| 2026-04-20 10:38 | 23.85564 | 43.59303 | 42963 ft | 581 kts | 108° |
| 2026-04-20 10:39 | 23.83234 | 43.67750 | 42959 ft | 580 kts | 108° |
| 2026-04-20 10:39 | 23.80904 | 43.76180 | 42950 ft | 579 kts | 108° |
| 2026-04-20 10:40 | 23.78573 | 43.84594 | 42920 ft | 579 kts | 108° |
| 2026-04-20 10:40 | 23.77093 | 43.93212 | 42925 ft | 578 kts | 95° |
| 2026-04-20 10:41 | 23.76351 | 44.01949 | 42909 ft | 578 kts | 93° |
| 2026-04-20 10:41 | 23.75735 | 44.10694 | 42902 ft | 578 kts | 93° |
| 2026-04-20 10:42 | 23.75112 | 44.19439 | 42907 ft | 579 kts | 93° |
| 2026-04-20 10:42 | 23.74458 | 44.28206 | 42903 ft | 579 kts | 93° |
| 2026-04-20 10:43 | 23.73793 | 44.36912 | 42896 ft | 580 kts | 93° |
| 2026-04-20 10:43 | 23.73118 | 44.45677 | 42892 ft | 579 kts | 93° |
| 2026-04-20 10:44 | 23.72439 | 44.54434 | 42897 ft | 579 kts | 93° |
| 2026-04-20 10:44 | 23.71757 | 44.63195 | 42895 ft | 579 kts | 93° |
| 2026-04-20 10:45 | 23.71070 | 44.71944 | 42889 ft | 579 kts | 93° |
| 2026-04-20 10:45 | 23.70379 | 44.80692 | 42891 ft | 579 kts | 93° |
| 2026-04-20 10:46 | 23.69683 | 44.89436 | 42884 ft | 579 kts | 93° |
| 2026-04-20 10:46 | 23.68985 | 44.98189 | 42889 ft | 579 kts | 94° |
| 2026-04-20 10:47 | 23.68274 | 45.06944 | 42870 ft | 579 kts | 93° |
| 2026-04-20 10:47 | 23.67561 | 45.15672 | 42871 ft | 577 kts | 93° |
| 2026-04-20 10:48 | 23.66852 | 45.24341 | 42871 ft | 577 kts | 93° |
| 2026-04-20 10:48 | 23.66134 | 45.33068 | 42869 ft | 578 kts | 93° |
| 2026-04-20 10:49 | 23.65406 | 45.41796 | 42864 ft | 579 kts | 93° |
| 2026-04-20 10:49 | 23.64673 | 45.50551 | 42861 ft | 580 kts | 93° |
| 2026-04-20 10:50 | 23.63935 | 45.59310 | 42860 ft | 580 kts | 93° |
| 2026-04-20 10:50 | 23.63190 | 45.68066 | 42854 ft | 580 kts | 93° |
| 2026-04-20 10:51 | 23.62442 | 45.76819 | 42848 ft | 580 kts | 93° |
| 2026-04-20 10:51 | 23.61690 | 45.85576 | 42850 ft | 580 kts | 94° |
| 2026-04-20 10:52 | 23.60933 | 45.94329 | 42857 ft | 579 kts | 94° |
| 2026-04-20 10:52 | 23.60171 | 46.03066 | 42856 ft | 579 kts | 94° |
| 2026-04-20 10:53 | 23.59405 | 46.11792 | 42863 ft | 578 kts | 94° |
| 2026-04-20 10:53 | 23.58634 | 46.20511 | 42847 ft | 577 kts | 94° |
| 2026-04-20 10:54 | 23.57861 | 46.29168 | 42870 ft | 577 kts | 93° |
| 2026-04-20 10:54 | 23.57088 | 46.37876 | 42885 ft | 577 kts | 94° |
| 2026-04-20 10:55 | 23.56303 | 46.46600 | 42883 ft | 579 kts | 94° |
| 2026-04-20 10:55 | 23.55640 | 46.53922 | 42891 ft | 580 kts | 94° |
| 2026-04-20 10:56 | 23.54843 | 46.62664 | 42876 ft | 579 kts | 93° |
| 2026-04-20 10:56 | 23.54043 | 46.71388 | 42878 ft | 578 kts | 94° |
| 2026-04-20 10:57 | 23.53238 | 46.80107 | 42877 ft | 578 kts | 94° |
| 2026-04-20 10:57 | 23.52428 | 46.88830 | 42864 ft | 578 kts | 94° |
| 2026-04-20 10:58 | 23.51615 | 46.97547 | 42870 ft | 578 kts | 94° |
| 2026-04-20 10:58 | 23.50796 | 47.06263 | 42853 ft | 578 kts | 94° |
| 2026-04-20 10:59 | 23.49973 | 47.14975 | 42843 ft | 578 kts | 94° |
| 2026-04-20 10:59 | 23.49151 | 47.23625 | 42850 ft | 578 kts | 94° |
| 2026-04-20 11:00 | 23.48319 | 47.32324 | 42845 ft | 577 kts | 94° |
| 2026-04-20 11:00 | 23.47483 | 47.41020 | 42848 ft | 577 kts | 94° |
| 2026-04-20 11:01 | 23.46641 | 47.49722 | 42840 ft | 578 kts | 94° |
| 2026-04-20 11:01 | 23.45796 | 47.58418 | 42839 ft | 577 kts | 94° |
| 2026-04-20 11:02 | 23.44944 | 47.67118 | 42837 ft | 578 kts | 94° |
| 2026-04-20 11:02 | 23.44087 | 47.75815 | 42833 ft | 577 kts | 94° |
| 2026-04-20 11:03 | 23.43227 | 47.84504 | 42831 ft | 577 kts | 94° |
| 2026-04-20 11:03 | 23.42364 | 47.93187 | 42818 ft | 577 kts | 94° |
| 2026-04-20 11:04 | 23.41494 | 48.01874 | 42831 ft | 577 kts | 94° |
| 2026-04-20 11:04 | 23.40619 | 48.10568 | 42812 ft | 578 kts | 94° |
| 2026-04-20 11:05 | 23.39739 | 48.19262 | 42805 ft | 578 kts | 94° |
| 2026-04-20 11:05 | 23.38860 | 48.27895 | 42802 ft | 577 kts | 94° |
| 2026-04-20 11:06 | 23.37989 | 48.36573 | 42797 ft | 576 kts | 92° |
| 2026-04-20 11:06 | 23.37572 | 48.45266 | 42803 ft | 574 kts | 88° |
| 2026-04-20 11:07 | 23.37352 | 48.53944 | 42803 ft | 574 kts | 88° |
| 2026-04-20 11:07 | 23.37071 | 48.62629 | 42796 ft | 574 kts | 89° |
| 2026-04-20 11:08 | 23.36723 | 48.71315 | 42792 ft | 574 kts | 89° |
| 2026-04-20 11:08 | 23.36350 | 48.80000 | 42791 ft | 574 kts | 89° |
| 2026-04-20 11:09 | 23.35975 | 48.88677 | 42781 ft | 574 kts | 89° |
| 2026-04-20 11:09 | 23.35598 | 48.97343 | 42788 ft | 573 kts | 89° |
| 2026-04-20 11:10 | 23.35152 | 49.06005 | 42780 ft | 575 kts | 94° |
| 2026-04-20 11:10 | 23.34062 | 49.14629 | 42782 ft | 576 kts | 96° |
| 2026-04-20 11:11 | 23.32838 | 49.23190 | 42781 ft | 576 kts | 97° |
| 2026-04-20 11:11 | 23.31577 | 49.31794 | 42785 ft | 576 kts | 97° |
| 2026-04-20 11:12 | 23.30321 | 49.40403 | 42778 ft | 576 kts | 97° |
| 2026-04-20 11:12 | 23.29069 | 49.49018 | 42775 ft | 576 kts | 97° |
| 2026-04-20 11:13 | 23.27818 | 49.57608 | 42771 ft | 574 kts | 97° |
| 2026-04-20 11:13 | 23.26563 | 49.66185 | 42774 ft | 574 kts | 97° |
| 2026-04-20 11:14 | 23.25306 | 49.74750 | 42781 ft | 574 kts | 97° |
| 2026-04-20 11:14 | 23.24041 | 49.83323 | 42768 ft | 574 kts | 96° |
| 2026-04-20 11:15 | 23.22772 | 49.91896 | 42774 ft | 574 kts | 96° |
| 2026-04-20 11:15 | 23.21499 | 50.00460 | 42761 ft | 574 kts | 96° |
| 2026-04-20 11:16 | 23.20222 | 50.09023 | 42770 ft | 573 kts | 96° |
| 2026-04-20 11:16 | 23.18943 | 50.17568 | 42774 ft | 573 kts | 96° |
| 2026-04-20 11:17 | 23.17658 | 50.26114 | 42769 ft | 573 kts | 96° |
| 2026-04-20 11:17 | 23.16367 | 50.34668 | 42775 ft | 573 kts | 96° |
| 2026-04-20 11:18 | 23.15074 | 50.43210 | 42780 ft | 573 kts | 96° |
| 2026-04-20 11:18 | 23.13773 | 50.51766 | 42771 ft | 574 kts | 96° |
| 2026-04-20 11:19 | 23.12478 | 50.60254 | 42768 ft | 573 kts | 96° |
| 2026-04-20 11:19 | 23.11171 | 50.68787 | 42770 ft | 573 kts | 97° |
| 2026-04-20 11:20 | 23.09860 | 50.77318 | 42772 ft | 573 kts | 97° |
| 2026-04-20 11:20 | 23.08543 | 50.85853 | 42771 ft | 573 kts | 97° |
| 2026-04-20 11:21 | 23.07221 | 50.94389 | 42768 ft | 573 kts | 97° |
| 2026-04-20 11:21 | 23.05894 | 51.02931 | 42768 ft | 574 kts | 97° |
| 2026-04-20 11:22 | 23.04560 | 51.11477 | 42754 ft | 574 kts | 97° |
| 2026-04-20 11:22 | 23.03225 | 51.20007 | 42771 ft | 572 kts | 97° |
| 2026-04-20 11:23 | 23.01887 | 51.28515 | 42771 ft | 572 kts | 97° |
| 2026-04-20 11:23 | 23.00546 | 51.37023 | 42767 ft | 572 kts | 97° |
| 2026-04-20 11:24 | 22.99210 | 51.45467 | 42769 ft | 572 kts | 97° |
| 2026-04-20 11:24 | 22.97860 | 51.53966 | 42768 ft | 572 kts | 97° |
| 2026-04-20 11:25 | 22.96505 | 51.62467 | 42769 ft | 571 kts | 97° |
| 2026-04-20 11:25 | 22.95148 | 51.70948 | 42769 ft | 570 kts | 97° |
| 2026-04-20 11:26 | 22.93788 | 51.79424 | 42766 ft | 570 kts | 97° |
| 2026-04-20 11:26 | 22.92424 | 51.87889 | 42768 ft | 569 kts | 97° |
| 2026-04-20 11:27 | 22.91057 | 51.96346 | 42771 ft | 569 kts | 97° |
| 2026-04-20 11:27 | 22.89687 | 52.04799 | 42775 ft | 569 kts | 97° |
| 2026-04-20 11:28 | 22.88312 | 52.13244 | 42773 ft | 568 kts | 97° |
| 2026-04-20 11:28 | 22.86934 | 52.21679 | 42774 ft | 568 kts | 97° |
| 2026-04-20 11:29 | 22.85553 | 52.30103 | 42773 ft | 567 kts | 97° |
| 2026-04-20 11:29 | 22.84173 | 52.38500 | 42777 ft | 565 kts | 97° |
| 2026-04-20 11:30 | 22.82804 | 52.46895 | 42768 ft | 564 kts | 96° |
| 2026-04-20 11:30 | 22.82270 | 52.55331 | 42774 ft | 561 kts | 88° |
| 2026-04-20 11:31 | 22.82030 | 52.63715 | 42773 ft | 560 kts | 88° |
| 2026-04-20 11:31 | 22.81836 | 52.72158 | 42777 ft | 560 kts | 88° |
| 2026-04-20 11:32 | 22.81629 | 52.80599 | 42782 ft | 560 kts | 88° |
| 2026-04-20 11:32 | 22.81403 | 52.89100 | 42776 ft | 561 kts | 88° |
| 2026-04-20 11:33 | 22.81168 | 52.97557 | 42779 ft | 561 kts | 88° |
| 2026-04-20 11:33 | 22.80931 | 53.05944 | 42785 ft | 560 kts | 88° |
| 2026-04-20 11:34 | 22.80689 | 53.14383 | 42782 ft | 560 kts | 88° |
| 2026-04-20 11:34 | 22.80443 | 53.22811 | 42782 ft | 560 kts | 88° |
| 2026-04-20 11:35 | 22.80192 | 53.31244 | 42780 ft | 560 kts | 88° |
| 2026-04-20 11:35 | 22.79937 | 53.39679 | 42783 ft | 560 kts | 88° |
| 2026-04-20 11:36 | 22.79678 | 53.48118 | 42781 ft | 560 kts | 88° |
| 2026-04-20 11:36 | 22.79414 | 53.56548 | 42783 ft | 560 kts | 88° |
| 2026-04-20 11:37 | 22.79146 | 53.64991 | 42783 ft | 560 kts | 88° |
| 2026-04-20 11:37 | 22.78735 | 53.77647 | 42786 ft | 560 kts | 88° |
| 2026-04-20 11:38 | 22.78458 | 53.86029 | 42785 ft | 560 kts | 88° |
| 2026-04-20 11:38 | 22.78173 | 53.94470 | 42784 ft | 560 kts | 88° |
| 2026-04-20 11:39 | 22.78737 | 54.02777 | 42788 ft | 550 kts | 74° |
| 2026-04-20 11:39 | 22.80252 | 54.10858 | 42784 ft | 548 kts | 72° |
| 2026-04-20 11:40 | 22.81680 | 54.17773 | 42782 ft | 548 kts | 72° |
| 2026-04-20 11:40 | 22.83351 | 54.25837 | 42781 ft | 548 kts | 72° |
| 2026-04-20 11:41 | 22.84995 | 54.33897 | 42782 ft | 547 kts | 72° |
| 2026-04-20 11:41 | 22.86621 | 54.41954 | 42782 ft | 547 kts | 72° |
| 2026-04-20 11:42 | 22.88240 | 54.50011 | 42786 ft | 547 kts | 72° |
| 2026-04-20 11:42 | 22.89856 | 54.58069 | 42782 ft | 546 kts | 72° |
| 2026-04-20 11:43 | 22.91466 | 54.66116 | 42783 ft | 546 kts | 72° |
| 2026-04-20 11:43 | 22.93072 | 54.74161 | 42782 ft | 546 kts | 72° |
| 2026-04-20 11:44 | 22.94660 | 54.82146 | 42779 ft | 545 kts | 72° |
| 2026-04-20 11:44 | 22.96254 | 54.90180 | 42780 ft | 544 kts | 72° |
| 2026-04-20 11:45 | 22.97843 | 54.98208 | 42779 ft | 544 kts | 72° |
| 2026-04-20 11:45 | 22.99428 | 55.06239 | 42779 ft | 544 kts | 72° |
| 2026-04-20 11:46 | 23.01276 | 55.14146 | 42780 ft | 534 kts | 62° |
| 2026-04-20 11:46 | 23.02833 | 55.17757 | 42780 ft | 523 kts | 52° |
| 2026-04-20 11:46 | 23.04882 | 55.20961 | 42780 ft | 511 kts | 41° |
| 2026-04-20 11:47 | 23.07348 | 55.23663 | 42780 ft | 498 kts | 31° |
| 2026-04-20 11:47 | 23.10133 | 55.25807 | 42779 ft | 486 kts | 21° |
| 2026-04-20 11:47 | 23.15246 | 55.28103 | 42794 ft | 467 kts | 6° |
| 2026-04-20 11:48 | 23.21560 | 55.29781 | 42786 ft | 468 kts | 7° |
| 2026-04-20 11:48 | 23.27827 | 55.31534 | 42788 ft | 469 kts | 7° |
| 2026-04-20 11:49 | 23.34138 | 55.33349 | 42786 ft | 469 kts | 7° |
| 2026-04-20 11:49 | 23.40440 | 55.35202 | 42783 ft | 469 kts | 7° |
| 2026-04-20 11:50 | 23.46753 | 55.37072 | 42793 ft | 470 kts | 7° |
| 2026-04-20 11:50 | 23.53078 | 55.38947 | 42794 ft | 471 kts | 7° |
| 2026-04-20 11:51 | 23.59400 | 55.40820 | 42782 ft | 471 kts | 7° |
| 2026-04-20 11:51 | 23.65728 | 55.42692 | 42794 ft | 471 kts | 7° |
| 2026-04-20 11:52 | 23.72048 | 55.44565 | 42807 ft | 471 kts | 7° |
| 2026-04-20 11:52 | 23.78378 | 55.46442 | 42800 ft | 472 kts | 7° |
| 2026-04-20 11:53 | 23.84703 | 55.48323 | 42796 ft | 465 kts | 7° |
| 2026-04-20 11:53 | 23.87772 | 55.49248 | 42633 ft | 452 kts | 7° |
| 2026-04-20 11:53 | 23.90789 | 55.50153 | 42162 ft | 447 kts | 7° |
| 2026-04-20 11:54 | 23.93798 | 55.51046 | 41378 ft | 449 kts | 7° |
| 2026-04-20 11:54 | 23.96821 | 55.51947 | 40573 ft | 454 kts | 8° |
| 2026-04-20 11:54 | 23.99813 | 55.53188 | 39795 ft | 467 kts | 17° |
| 2026-04-20 11:54 | 24.02655 | 55.55016 | 39049 ft | 483 kts | 27° |
| 2026-04-20 11:55 | 24.05270 | 55.57289 | 38311 ft | 490 kts | 31° |
| 2026-04-20 11:55 | 24.07854 | 55.59743 | 37436 ft | 493 kts | 33° |
| 2026-04-20 11:55 | 24.10400 | 55.62270 | 36611 ft | 495 kts | 35° |
| 2026-04-20 11:55 | 24.12937 | 55.64833 | 35799 ft | 496 kts | 36° |
| 2026-04-20 11:56 | 24.15451 | 55.67378 | 34950 ft | 491 kts | 37° |
| 2026-04-20 11:56 | 24.17927 | 55.69883 | 34112 ft | 479 kts | 37° |
| 2026-04-20 11:56 | 24.20388 | 55.72354 | 33187 ft | 482 kts | 38° |
| 2026-04-20 11:56 | 24.22878 | 55.74835 | 32239 ft | 486 kts | 39° |
| 2026-04-20 11:57 | 24.25394 | 55.77332 | 31321 ft | 490 kts | 39° |
| 2026-04-20 11:57 | 24.27929 | 55.79847 | 30449 ft | 494 kts | 40° |
| 2026-04-20 11:57 | 24.30481 | 55.82381 | 29530 ft | 497 kts | 41° |
| 2026-04-20 11:57 | 24.33046 | 55.84936 | 28534 ft | 499 kts | 41° |
| 2026-04-20 11:58 | 24.35619 | 55.87503 | 27566 ft | 501 kts | 40° |
| 2026-04-20 11:58 | 24.38197 | 55.90076 | 26660 ft | 501 kts | 40° |
| 2026-04-20 11:58 | 24.40774 | 55.92653 | 25764 ft | 501 kts | 40° |
| 2026-04-20 11:58 | 24.43345 | 55.95221 | 24891 ft | 499 kts | 40° |
| 2026-04-20 11:59 | 24.45911 | 55.97781 | 24073 ft | 497 kts | 39° |
| 2026-04-20 11:59 | 24.48453 | 56.00319 | 23357 ft | 490 kts | 39° |
| 2026-04-20 11:59 | 24.50910 | 56.02777 | 22417 ft | 467 kts | 39° |
| 2026-04-20 11:59 | 24.53256 | 56.05126 | 21497 ft | 447 kts | 39° |
| 2026-04-20 12:00 | 24.55500 | 56.07377 | 20617 ft | 429 kts | 40° |
| 2026-04-20 12:00 | 24.57676 | 56.09535 | 19745 ft | 413 kts | 37° |
| 2026-04-20 12:00 | 24.59987 | 56.11289 | 18911 ft | 395 kts | 26° |
| 2026-04-20 12:00 | 24.62478 | 56.12404 | 18103 ft | 382 kts | 14° |
| 2026-04-20 12:01 | 24.65075 | 56.13140 | 17147 ft | 388 kts | 10° |
| 2026-04-20 12:01 | 24.67740 | 56.13712 | 16206 ft | 392 kts | 7° |
| 2026-04-20 12:01 | 24.70387 | 56.14191 | 15329 ft | 379 kts | 6° |
| 2026-04-20 12:01 | 24.72916 | 56.14616 | 14472 ft | 366 kts | 6° |
| 2026-04-20 12:02 | 24.75387 | 56.15031 | 13649 ft | 354 kts | 6° |
| 2026-04-20 12:02 | 24.77800 | 56.15261 | 12722 ft | 348 kts | 358° |
| 2026-04-20 12:02 | 24.80162 | 56.14967 | 11811 ft | 335 kts | 345° |
| 2026-04-20 12:02 | 24.82351 | 56.14222 | 10963 ft | 325 kts | 339° |
| 2026-04-20 12:03 | 24.84483 | 56.13297 | 10296 ft | 340 kts | 336° |
| 2026-04-20 12:03 | 24.86684 | 56.12229 | 9939 ft | 349 kts | 335° |
| 2026-04-20 12:03 | 24.88891 | 56.11113 | 9841 ft | 350 kts | 335° |
| 2026-04-20 12:03 | 24.91103 | 56.09985 | 9835 ft | 350 kts | 335° |
| 2026-04-20 12:04 | 24.93300 | 56.08832 | 9833 ft | 354 kts | 332° |
| 2026-04-20 12:04 | 24.95380 | 56.07249 | 9748 ft | 372 kts | 319° |
| 2026-04-20 12:04 | 24.97011 | 56.04997 | 9600 ft | 383 kts | 299° |
| 2026-04-20 12:04 | 24.98119 | 56.02321 | 9511 ft | 383 kts | 293° |
| 2026-04-20 12:05 | 24.99095 | 55.99597 | 9269 ft | 383 kts | 292° |
| 2026-04-20 12:05 | 25.00057 | 55.96854 | 8840 ft | 384 kts | 291° |
| 2026-04-20 12:05 | 25.01015 | 55.94111 | 8382 ft | 382 kts | 292° |
| 2026-04-20 12:05 | 25.01966 | 55.91394 | 7943 ft | 378 kts | 292° |
| 2026-04-20 12:06 | 25.02913 | 55.88693 | 7464 ft | 378 kts | 291° |
| 2026-04-20 12:06 | 25.03857 | 55.85997 | 7010 ft | 376 kts | 291° |
| 2026-04-20 12:06 | 25.04799 | 55.83307 | 6547 ft | 375 kts | 291° |
| 2026-04-20 12:06 | 25.05736 | 55.80630 | 6075 ft | 374 kts | 291° |
| 2026-04-20 12:07 | 25.06671 | 55.77953 | 5606 ft | 373 kts | 291° |
| 2026-04-20 12:07 | 25.07595 | 55.75306 | 5237 ft | 367 kts | 291° |
| 2026-04-20 12:07 | 25.08503 | 55.72707 | 4772 ft | 358 kts | 291° |
| 2026-04-20 12:07 | 25.09383 | 55.70188 | 4308 ft | 345 kts | 291° |
| 2026-04-20 12:08 | 25.10227 | 55.67770 | 3840 ft | 333 kts | 291° |
| 2026-04-20 12:08 | 25.11035 | 55.65454 | 3375 ft | 310 kts | 291° |
| 2026-04-20 12:08 | 25.11780 | 55.63318 | 3003 ft | 292 kts | 290° |
| 2026-04-20 12:08 | 25.12496 | 55.61260 | 2854 ft | 278 kts | 290° |
| 2026-04-20 12:09 | 25.13163 | 55.59343 | 2838 ft | 258 kts | 290° |
| 2026-04-20 12:09 | 25.13805 | 55.57583 | 2839 ft | 238 kts | 292° |
| 2026-04-20 12:09 | 25.14490 | 55.55997 | 2838 ft | 220 kts | 297° |
| 2026-04-20 12:09 | 25.15270 | 55.54612 | 2837 ft | 213 kts | 302° |
| 2026-04-20 12:10 | 25.16048 | 55.53211 | 2757 ft | 209 kts | 299° |
| 2026-04-20 12:10 | 25.16765 | 55.51855 | 2528 ft | 203 kts | 300° |
| 2026-04-20 12:10 | 25.17487 | 55.50530 | 2246 ft | 199 kts | 302° |
| 2026-04-20 12:10 | 25.18196 | 55.49253 | 2006 ft | 189 kts | 301° |
| 2026-04-20 12:11 | 25.18855 | 55.48054 | 1765 ft | 180 kts | 302° |
| 2026-04-20 12:11 | 25.19510 | 55.46871 | 1521 ft | 179 kts | 301° |
| 2026-04-20 12:11 | 25.20149 | 55.45716 | 1298 ft | 179 kts | 301° |
| 2026-04-20 12:11 | 25.20796 | 55.44551 | 1069 ft | 177 kts | 300° |
| 2026-04-20 12:12 | 25.21440 | 55.43386 | 847 ft | 177 kts | 301° |
| 2026-04-20 12:12 | 25.22078 | 55.42231 | 622 ft | 175 kts | 301° |
| 2026-04-20 12:12 | 25.22714 | 55.41078 | 401 ft | 177 kts | 300° |
| 2026-04-20 12:12 | 25.23341 | 55.39948 | 173 ft | 166 kts | 302° |
| 2026-04-20 12:13 | 25.23907 | 55.38916 | 29 ft | 147 kts | 300° |
| 2026-04-20 12:13 | 25.24331 | 55.38149 | 28 ft | 76 kts | 302° |
| 2026-04-20 12:13 | 25.24454 | 55.37931 | 28 ft | 4 kts | 300° |
| 2026-04-20 12:13 | 25.24512 | 55.37822 | 28 ft | 19 kts | 301° |
| 2026-04-20 12:14 | 25.24641 | 55.37648 | 28 ft | 33 kts | 320° |
| 2026-04-20 12:14 | 25.24823 | 55.37520 | 28 ft | 29 kts | 333° |
| 2026-04-20 12:14 | 25.24960 | 55.37376 | 28 ft | 27 kts | 299° |
| 2026-04-20 12:14 | 25.25053 | 55.37219 | 28 ft | 21 kts | 318° |
| 2026-04-20 12:15 | 25.25174 | 55.37224 | 28 ft | 20 kts | 31° |
| 2026-04-20 12:15 | 25.25293 | 55.37306 | 27 ft | 19 kts | 32° |
| 2026-04-20 12:15 | 25.25399 | 55.37375 | 28 ft | 16 kts | 22° |
| 2026-04-20 12:15 | 25.25485 | 55.37348 | 28 ft | 14 kts | 306° |
| 2026-04-20 12:16 | 25.25545 | 55.37242 | 28 ft | 15 kts | 302° |
| 2026-04-20 12:16 | 25.25600 | 55.37154 | 28 ft | 7 kts | 323° |
| 2026-04-20 12:16 | 25.25625 | 55.37151 | 28 ft | 1 kts | 10° |
| 2026-04-20 12:16 | 25.25661 | 55.37174 | 28 ft | 0 kts | 30° |
| 2026-04-20 12:17 | 25.25661 | 55.37175 | 28 ft | 1 kts | 30° |
| 2026-04-20 12:17 | 25.25677 | 55.37185 | 28 ft | 0 kts | 30° |